Time,TemperatureF,DewpointF,PressureIn,WindDirection,WindDirectionDegrees,WindSpeedMPH,WindSpeedGustMPH,Humidity,HourlyPrecipIn,Conditions,Clouds,dailyrainin,SoftwareType,DateUTC
2013-03-10 00:00:00,40.6,26.5,30.33,ENE,78,0.0,0.0,57,0.00,,,0.00,Wunderground v.1.15,2013-03-10 05:00:00,
2013-03-10 00:01:00,40.6,27.0,30.33,ENE,78,0.0,4.0,58,0.00,,,0.00,Wunderground v.1.15,2013-03-10 05:01:00,
2013-03-10 00:02:00,40.6,27.0,30.33,ENE,78,0.0,4.0,58,0.00,,,0.00,Wunderground v.1.15,2013-03-10 05:02:00,
2013-03-10 00:06:00,40.6,27.0,30.33,ENE,78,0.0,4.0,58,0.00,,,0.00,Wunderground v.1.15,2013-03-10 05:06:00,
2013-03-10 00:08:00,40.6,26.5,30.33,ENE,78,0.0,4.0,57,0.00,,,0.00,Wunderground v.1.15,2013-03-10 05:08:00,
2013-03-10 00:09:00,40.6,26.5,30.33,ENE,78,0.0,4.0,57,0.00,,,0.00,Wunderground v.1.15,2013-03-10 05:09:00,
2013-03-10 00:13:00,40.9,26.8,30.33,ENE,78,0.0,3.0,57,0.00,,,0.00,Wunderground v.1.15,2013-03-10 05:13:00,
2013-03-10 00:16:00,40.8,26.7,30.33,ENE,78,0.0,3.0,57,0.00,,,0.00,Wunderground v.1.15,2013-03-10 05:16:00,
2013-03-10 00:18:00,40.9,26.8,30.33,East,80,0.0,3.0,57,0.00,,,0.00,Wunderground v.1.15,2013-03-10 05:18:00,
2013-03-10 00:19:00,40.9,26.8,30.33,East,81,0.0,3.0,57,0.00,,,0.00,Wunderground v.1.15,2013-03-10 05:19:00,
2013-03-10 00:22:00,40.9,26.8,30.33,East,80,1.0,2.0,57,0.00,,,0.00,Wunderground v.1.15,2013-03-10 05:22:00,
2013-03-10 00:24:00,41.1,27.0,30.33,East,81,1.0,2.0,57,0.00,,,0.00,Wunderground v.1.15,2013-03-10 05:24:00,
2013-03-10 00:27:00,41.2,26.7,30.33,ESE,103,1.0,4.0,56,0.00,,,0.00,Wunderground v.1.15,2013-03-10 05:27:00,
2013-03-10 00:28:00,41.4,26.9,30.33,ESE,103,1.0,4.0,56,0.00,,,0.00,Wunderground v.1.15,2013-03-10 05:28:00,
2013-03-10 00:29:00,41.5,26.5,30.33,ESE,104,1.0,4.0,55,0.00,,,0.00,Wunderground v.1.15,2013-03-10 05:29:00,
2013-03-10 00:33:00,41.4,26.4,30.33,ESE,104,0.0,3.0,55,0.00,,,0.00,Wunderground v.1.15,2013-03-10 05:33:00,
2013-03-10 00:35:00,41.6,26.6,30.33,ESE,104,0.0,3.0,55,0.00,,,0.00,Wunderground v.1.15,2013-03-10 05:35:00,
2013-03-10 00:36:00,41.7,26.7,30.33,ESE,104,0.0,3.0,55,0.00,,,0.00,Wunderground v.1.15,2013-03-10 05:36:00,
2013-03-10 00:37:00,41.6,26.6,30.33,ESE,103,0.0,3.0,55,0.00,,,0.00,Wunderground v.1.15,2013-03-10 05:37:00,
2013-03-10 00:41:00,41.8,26.8,30.33,ESE,103,0.0,0.0,55,0.00,,,0.00,Wunderground v.1.15,2013-03-10 05:41:00,
2013-03-10 00:42:00,41.9,26.9,30.33,ESE,104,0.0,0.0,55,0.00,,,0.00,Wunderground v.1.15,2013-03-10 05:42:00,
2013-03-10 00:43:00,42.0,26.5,30.33,ESE,119,0.0,4.0,54,0.00,,,0.00,Wunderground v.1.15,2013-03-10 05:43:00,
2013-03-10 00:47:00,42.0,27.0,30.33,ESE,119,1.0,4.0,55,0.00,,,0.00,Wunderground v.1.15,2013-03-10 05:47:00,
2013-03-10 00:49:00,41.7,26.7,30.33,ESE,119,1.0,4.0,55,0.00,,,0.00,Wunderground v.1.15,2013-03-10 05:49:00,
2013-03-10 00:54:00,42.0,26.1,30.33,East,98,1.0,1.0,53,0.00,,,0.00,Wunderground v.1.15,2013-03-10 05:54:00,
2013-03-10 00:55:00,42.0,26.1,30.33,East,98,1.0,2.0,53,0.00,,,0.00,Wunderground v.1.15,2013-03-10 05:55:00,
2013-03-10 00:56:00,42.0,26.5,30.33,East,98,1.0,2.0,54,0.00,,,0.00,Wunderground v.1.15,2013-03-10 05:56:00,
2013-03-10 00:59:00,41.9,26.0,30.33,East,98,1.0,2.0,53,0.00,,,0.00,Wunderground v.1.15,2013-03-10 05:59:00,
2013-03-10 01:01:00,41.6,26.6,30.33,East,98,1.0,4.0,55,0.00,,,0.00,Wunderground v.1.15,2013-03-10 06:01:00,
2013-03-10 01:04:00,41.4,26.0,30.33,East,98,1.0,4.0,54,0.00,,,0.00,Wunderground v.1.15,2013-03-10 06:04:00,
2013-03-10 01:06:00,41.5,26.1,30.33,East,98,1.0,4.0,54,0.00,,,0.00,Wunderground v.1.15,2013-03-10 06:06:00,
2013-03-10 01:07:00,41.5,25.6,30.33,East,98,0.0,4.0,53,0.00,,,0.00,Wunderground v.1.15,2013-03-10 06:07:00,
2013-03-10 01:10:00,41.8,25.4,30.33,East,98,0.0,0.0,52,0.00,,,0.00,Wunderground v.1.15,2013-03-10 06:10:00,
2013-03-10 01:12:00,41.9,26.0,30.33,East,98,0.0,0.0,53,0.00,,,0.00,Wunderground v.1.15,2013-03-10 06:12:00,
2013-03-10 01:16:00,42.0,25.6,30.33,East,98,0.0,0.0,52,0.00,,,0.00,Wunderground v.1.15,2013-03-10 06:16:00,
2013-03-10 01:17:00,42.2,25.8,30.33,East,98,0.0,0.0,52,0.00,,,0.00,Wunderground v.1.15,2013-03-10 06:17:00,
2013-03-10 01:18:00,42.1,26.2,30.33,East,98,0.0,2.0,53,0.00,,,0.00,Wunderground v.1.15,2013-03-10 06:18:00,
2013-03-10 01:22:00,42.3,25.0,30.33,East,95,0.0,2.0,50,0.00,,,0.00,Wunderground v.1.15,2013-03-10 06:22:00,
2013-03-10 01:24:00,42.4,26.0,30.33,East,95,1.0,2.0,52,0.00,,,0.00,Wunderground v.1.15,2013-03-10 06:24:00,
2013-03-10 01:27:00,42.0,25.6,30.33,East,95,1.0,2.0,52,0.00,,,0.00,Wunderground v.1.15,2013-03-10 06:27:00,
2013-03-10 01:29:00,41.8,25.9,30.33,East,95,0.0,2.0,53,0.00,,,0.00,Wunderground v.1.15,2013-03-10 06:29:00,
2013-03-10 01:30:00,41.8,25.4,30.33,East,95,0.0,0.0,52,0.00,,,0.00,Wunderground v.1.15,2013-03-10 06:30:00,
2013-03-10 01:31:00,41.8,25.4,30.33,East,95,0.0,5.0,52,0.00,,,0.00,Wunderground v.1.15,2013-03-10 06:31:00,
2013-03-10 01:36:00,41.3,25.4,30.33,East,95,0.0,5.0,53,0.00,,,0.00,Wunderground v.1.15,2013-03-10 06:36:00,
2013-03-10 01:38:00,41.5,25.6,30.32,East,95,1.0,5.0,53,0.00,,,0.00,Wunderground v.1.15,2013-03-10 06:38:00,
2013-03-10 01:39:00,41.6,25.7,30.32,East,95,1.0,5.0,53,0.00,,,0.00,Wunderground v.1.15,2013-03-10 06:39:00,
2013-03-10 01:43:00,42.0,26.1,30.32,East,95,1.0,1.0,53,0.00,,,0.00,Wunderground v.1.15,2013-03-10 06:43:00,
2013-03-10 01:44:00,42.0,25.6,30.32,East,95,1.0,1.0,52,0.00,,,0.00,Wunderground v.1.15,2013-03-10 06:44:00,
2013-03-10 01:46:00,42.0,25.2,30.32,East,83,1.0,1.0,51,0.00,,,0.00,Wunderground v.1.15,2013-03-10 06:46:00,
2013-03-10 01:47:00,42.1,25.3,30.32,East,83,1.0,1.0,51,0.00,,,0.00,Wunderground v.1.15,2013-03-10 06:47:00,
2013-03-10 01:50:00,42.0,26.1,30.32,East,88,1.0,1.0,53,0.00,,,0.00,Wunderground v.1.15,2013-03-10 06:50:00,
2013-03-10 01:52:00,42.0,25.2,30.32,East,88,1.0,1.0,51,0.00,,,0.00,Wunderground v.1.15,2013-03-10 06:52:00,
2013-03-10 01:53:00,42.1,25.3,30.32,East,88,1.0,1.0,51,0.00,,,0.00,Wunderground v.1.15,2013-03-10 06:53:00,
2013-03-10 01:57:00,42.1,25.3,30.32,East,88,0.0,2.0,51,0.00,,,0.00,Wunderground v.1.15,2013-03-10 06:57:00,
2013-03-10 01:58:00,41.8,25.9,30.32,East,96,0.0,2.0,53,0.00,,,0.00,Wunderground v.1.15,2013-03-10 06:58:00,
2013-03-10 03:00:00,41.7,25.4,30.32,ESE,121,0.0,4.0,52,0.00,,,0.00,Wunderground v.1.15,2013-03-10 07:00:00,
2013-03-10 03:02:00,41.8,25.4,30.32,ESE,118,1.0,4.0,52,0.00,,,0.00,Wunderground v.1.15,2013-03-10 07:02:00,
2013-03-10 03:04:00,41.8,25.0,30.32,ESE,108,1.0,4.0,51,0.00,,,0.00,Wunderground v.1.15,2013-03-10 07:04:00,
2013-03-10 03:05:00,41.9,25.1,30.32,ESE,108,1.0,4.0,51,0.00,,,0.00,Wunderground v.1.15,2013-03-10 07:05:00,
2013-03-10 03:09:00,42.0,25.2,30.32,ESE,107,1.0,4.0,51,0.00,,,0.00,Wunderground v.1.15,2013-03-10 07:09:00,
2013-03-10 03:10:00,42.0,25.6,30.32,ESE,108,1.0,2.0,52,0.00,,,0.00,Wunderground v.1.15,2013-03-10 07:10:00,
2013-03-10 03:11:00,42.0,25.6,30.32,ESE,107,1.0,2.0,52,0.00,,,0.00,Wunderground v.1.15,2013-03-10 07:11:00,
2013-03-10 03:14:00,41.9,25.5,30.32,ESE,108,0.0,2.0,52,0.00,,,0.00,Wunderground v.1.15,2013-03-10 07:14:00,
2013-03-10 03:16:00,41.8,25.0,30.32,ESE,108,0.0,2.0,51,0.00,,,0.00,Wunderground v.1.15,2013-03-10 07:16:00,
2013-03-10 03:17:00,41.8,25.4,30.32,ESE,108,0.0,4.0,52,0.00,,,0.00,Wunderground v.1.15,2013-03-10 07:17:00,
2013-03-10 03:20:00,41.8,25.9,30.32,ESE,103,1.0,1.0,53,0.00,,,0.00,Wunderground v.1.15,2013-03-10 07:20:00,
2013-03-10 03:22:00,41.4,25.5,30.32,ESE,102,0.0,1.0,53,0.00,,,0.00,Wunderground v.1.15,2013-03-10 07:22:00,
2013-03-10 03:24:00,41.3,25.0,30.32,ESE,103,0.0,1.0,52,0.00,,,0.00,Wunderground v.1.15,2013-03-10 07:24:00,
2013-03-10 03:28:00,41.9,25.1,30.31,ESE,103,0.0,2.0,51,0.00,,,0.00,Wunderground v.1.15,2013-03-10 07:28:00,
2013-03-10 03:29:00,41.9,25.1,30.31,ESE,103,0.0,2.0,51,0.00,,,0.00,Wunderground v.1.15,2013-03-10 07:29:00,
2013-03-10 03:30:00,42.1,25.3,30.32,ESE,103,0.0,0.0,51,0.00,,,0.00,Wunderground v.1.15,2013-03-10 07:30:00,
2013-03-10 03:33:00,42.3,25.4,30.31,ESE,103,1.0,5.0,51,0.00,,,0.00,Wunderground v.1.15,2013-03-10 07:33:00,
2013-03-10 03:35:00,42.4,26.0,30.31,ESE,103,0.0,5.0,52,0.00,,,0.00,Wunderground v.1.15,2013-03-10 07:35:00,
2013-03-10 03:36:00,42.3,25.9,30.31,ESE,103,0.0,5.0,52,0.00,,,0.00,Wunderground v.1.15,2013-03-10 07:36:00,
2013-03-10 03:37:00,42.1,25.3,30.31,ESE,103,0.0,5.0,51,0.00,,,0.00,Wunderground v.1.15,2013-03-10 07:37:00,
2013-03-10 03:41:00,42.0,25.6,30.31,ESE,105,1.0,4.0,52,0.00,,,0.00,Wunderground v.1.15,2013-03-10 07:41:00,
2013-03-10 03:43:00,41.9,25.1,30.31,ESE,105,1.0,4.0,51,0.00,,,0.00,Wunderground v.1.15,2013-03-10 07:43:00,
2013-03-10 03:44:00,41.9,25.5,30.31,East,100,1.0,4.0,52,0.00,,,0.00,Wunderground v.1.15,2013-03-10 07:44:00,
2013-03-10 03:48:00,42.0,25.2,30.30,East,101,1.0,4.0,51,0.00,,,0.00,Wunderground v.1.15,2013-03-10 07:48:00,
2013-03-10 03:50:00,42.0,25.2,30.30,East,101,1.0,1.0,51,0.00,,,0.00,Wunderground v.1.15,2013-03-10 07:50:00,
2013-03-10 03:51:00,42.2,24.9,30.30,ESE,103,1.0,1.0,50,0.00,,,0.00,Wunderground v.1.15,2013-03-10 07:51:00,
2013-03-10 03:55:00,42.3,25.4,30.30,ESE,103,1.0,1.0,51,0.00,,,0.00,Wunderground v.1.15,2013-03-10 07:55:00,
2013-03-10 03:57:00,42.4,25.1,30.30,ESE,102,1.0,1.0,50,0.00,,,0.00,Wunderground v.1.15,2013-03-10 07:57:00,
2013-03-10 03:58:00,42.3,25.4,30.30,ESE,102,1.0,1.0,51,0.00,,,0.00,Wunderground v.1.15,2013-03-10 07:58:00,
2013-03-10 04:01:00,42.4,25.1,30.30,ESE,102,0.0,5.0,50,0.00,,,0.00,Wunderground v.1.15,2013-03-10 08:01:00,
2013-03-10 04:03:00,42.7,25.3,30.30,East,86,0.0,5.0,50,0.00,,,0.00,Wunderground v.1.15,2013-03-10 08:03:00,
2013-03-10 04:05:00,42.6,25.2,30.30,East,91,0.0,5.0,50,0.00,,,0.00,Wunderground v.1.15,2013-03-10 08:05:00,
2013-03-10 04:06:00,42.6,25.2,30.29,East,91,0.0,5.0,50,0.00,,,0.00,Wunderground v.1.15,2013-03-10 08:06:00,
2013-03-10 04:09:00,42.3,25.4,30.29,East,91,0.0,5.0,51,0.00,,,0.00,Wunderground v.1.15,2013-03-10 08:09:00,
2013-03-10 04:11:00,42.2,24.9,30.29,East,92,0.0,0.0,50,0.00,,,0.00,Wunderground v.1.15,2013-03-10 08:11:00,
2013-03-10 04:13:00,42.1,25.3,30.29,East,92,0.0,0.0,51,0.00,,,0.00,Wunderground v.1.15,2013-03-10 08:13:00,
2013-03-10 04:15:00,41.8,25.4,30.29,East,92,0.0,0.0,52,0.00,,,0.00,Wunderground v.1.15,2013-03-10 08:15:00,
2013-03-10 04:16:00,41.6,25.3,30.29,East,92,0.0,0.0,52,0.00,,,0.00,Wunderground v.1.15,2013-03-10 08:16:00,
2013-03-10 04:20:00,41.6,24.8,30.29,East,92,0.0,0.0,51,0.00,,,0.00,Wunderground v.1.15,2013-03-10 08:20:00,
2013-03-10 04:21:00,41.7,24.4,30.29,East,92,0.0,0.0,50,0.00,,,0.00,Wunderground v.1.15,2013-03-10 08:21:00,
2013-03-10 04:25:00,41.8,25.4,30.29,East,95,1.0,1.0,52,0.00,,,0.00,Wunderground v.1.15,2013-03-10 08:25:00,
2013-03-10 04:28:00,41.2,25.3,30.28,East,95,1.0,2.0,53,0.00,,,0.00,Wunderground v.1.15,2013-03-10 08:28:00,
2013-03-10 04:30:00,41.4,24.6,30.28,East,95,0.0,0.0,51,0.00,,,0.00,Wunderground v.1.15,2013-03-10 08:30:00,
2013-03-10 04:32:00,41.6,24.8,30.28,East,95,0.0,6.0,51,0.00,,,0.00,Wunderground v.1.15,2013-03-10 08:32:00,
2013-03-10 04:35:00,41.8,25.4,30.29,East,95,0.0,6.0,52,0.00,,,0.00,Wunderground v.1.15,2013-03-10 08:35:00,
2013-03-10 04:37:00,41.6,25.3,30.28,ESE,116,0.0,6.0,52,0.00,,,0.00,Wunderground v.1.15,2013-03-10 08:37:00,
2013-03-10 04:38:00,41.9,25.1,30.28,East,92,0.0,6.0,51,0.00,,,0.00,Wunderground v.1.15,2013-03-10 08:38:00,
2013-03-10 04:39:00,41.9,25.1,30.28,East,91,1.0,6.0,51,0.00,,,0.00,Wunderground v.1.15,2013-03-10 08:39:00,
2013-03-10 04:43:00,42.1,25.3,30.28,East,92,1.0,1.0,51,0.00,,,0.00,Wunderground v.1.15,2013-03-10 08:43:00,
2013-03-10 04:46:00,41.8,25.0,30.29,East,92,1.0,1.0,51,0.00,,,0.00,Wunderground v.1.15,2013-03-10 08:46:00,
2013-03-10 04:48:00,42.0,25.2,30.29,East,92,0.0,1.0,51,0.00,,,0.00,Wunderground v.1.15,2013-03-10 08:48:00,
2013-03-10 04:50:00,41.8,25.4,30.29,East,95,0.0,4.0,52,0.00,,,0.00,Wunderground v.1.15,2013-03-10 08:50:00,
2013-03-10 04:54:00,42.0,25.2,30.29,East,95,1.0,4.0,51,0.00,,,0.00,Wunderground v.1.15,2013-03-10 08:54:00,
2013-03-10 04:55:00,42.0,25.2,30.29,East,96,1.0,4.0,51,0.00,,,0.00,Wunderground v.1.15,2013-03-10 08:55:00,
2013-03-10 04:56:00,41.9,25.5,30.29,East,101,1.0,4.0,52,0.00,,,0.00,Wunderground v.1.15,2013-03-10 08:56:00,
2013-03-10 05:02:00,42.2,25.8,30.29,ESE,104,0.0,5.0,52,0.00,,,0.00,Wunderground v.1.15,2013-03-10 09:02:00,
2013-03-10 05:03:00,42.1,25.7,30.29,ESE,112,0.0,5.0,52,0.00,,,0.00,Wunderground v.1.15,2013-03-10 09:03:00,
2013-03-10 05:06:00,42.2,25.8,30.29,ESE,109,1.0,5.0,52,0.00,,,0.00,Wunderground v.1.15,2013-03-10 09:06:00,
2013-03-10 05:07:00,42.3,25.4,30.29,ESE,109,1.0,5.0,51,0.00,,,0.00,Wunderground v.1.15,2013-03-10 09:07:00,
2013-03-10 05:08:00,42.3,25.9,30.29,ESE,109,1.0,5.0,52,0.00,,,0.00,Wunderground v.1.15,2013-03-10 09:08:00,
2013-03-10 05:13:00,42.1,25.7,30.29,ESE,109,0.0,1.0,52,0.00,,,0.00,Wunderground v.1.15,2013-03-10 09:13:00,
2013-03-10 05:14:00,42.2,25.8,30.29,ESE,109,0.0,1.0,52,0.00,,,0.00,Wunderground v.1.15,2013-03-10 09:14:00,
2013-03-10 05:15:00,42.2,25.8,30.29,ESE,109,0.0,1.0,52,0.00,,,0.00,Wunderground v.1.15,2013-03-10 09:15:00,
2013-03-10 05:17:00,42.7,26.3,30.29,ESE,109,0.0,1.0,52,0.00,,,0.00,Wunderground v.1.15,2013-03-10 09:17:00,
2013-03-10 05:18:00,42.7,26.7,30.30,ESE,109,0.0,1.0,53,0.00,,,0.00,Wunderground v.1.15,2013-03-10 09:18:00,
2013-03-10 05:20:00,42.6,26.6,30.30,ESE,109,1.0,1.0,53,0.00,,,0.00,Wunderground v.1.15,2013-03-10 09:20:00,
2013-03-10 05:24:00,42.7,26.3,30.30,ESE,121,1.0,1.0,52,0.00,,,0.00,Wunderground v.1.15,2013-03-10 09:24:00,
2013-03-10 05:26:00,42.8,26.4,30.30,SE,126,1.0,1.0,52,0.00,,,0.00,Wunderground v.1.15,2013-03-10 09:26:00,
2013-03-10 05:28:00,42.8,26.4,30.30,ESE,111,1.0,1.0,52,0.00,,,0.00,Wunderground v.1.15,2013-03-10 09:28:00,
2013-03-10 05:31:00,42.9,26.5,30.30,ESE,111,0.0,7.0,52,0.00,,,0.00,Wunderground v.1.15,2013-03-10 09:31:00,
2013-03-10 05:32:00,42.9,26.9,30.30,ESE,111,0.0,7.0,53,0.00,,,0.00,Wunderground v.1.15,2013-03-10 09:32:00,
2013-03-10 05:37:00,42.8,26.4,30.30,ESE,114,0.0,7.0,52,0.00,,,0.00,Wunderground v.1.15,2013-03-10 09:37:00,
2013-03-10 05:38:00,42.9,26.9,30.30,ESE,114,1.0,7.0,53,0.00,,,0.00,Wunderground v.1.15,2013-03-10 09:38:00,
2013-03-10 05:39:00,42.9,26.5,30.30,ESE,114,1.0,7.0,52,0.00,,,0.00,Wunderground v.1.15,2013-03-10 09:39:00,
2013-03-10 05:40:00,42.8,26.8,30.30,ESE,114,1.0,1.0,53,0.00,,,0.00,Wunderground v.1.15,2013-03-10 09:40:00,
2013-03-10 05:46:00,42.8,26.8,30.30,ESE,114,0.0,1.0,53,0.00,,,0.00,Wunderground v.1.15,2013-03-10 09:46:00,
2013-03-10 05:49:00,42.8,26.4,30.30,ESE,114,0.0,1.0,52,0.00,,,0.00,Wunderground v.1.15,2013-03-10 09:49:00,
2013-03-10 05:52:00,42.9,26.5,30.30,ESE,114,0.0,0.0,52,0.00,,,0.00,Wunderground v.1.15,2013-03-10 09:52:00,
2013-03-10 05:54:00,43.0,26.6,30.31,ESE,114,0.0,0.0,52,0.00,,,0.00,Wunderground v.1.15,2013-03-10 09:54:00,
2013-03-10 05:56:00,43.0,26.6,30.31,ESE,114,0.0,0.0,52,0.00,,,0.00,Wunderground v.1.15,2013-03-10 09:56:00,
2013-03-10 06:00:00,43.0,26.6,30.31,ESE,114,0.0,0.0,52,0.00,,,0.00,Wunderground v.1.15,2013-03-10 10:00:00,
2013-03-10 06:01:00,43.0,26.6,30.31,ESE,114,0.0,6.0,52,0.00,,,0.00,Wunderground v.1.15,2013-03-10 10:01:00,
2013-03-10 06:03:00,42.8,26.4,30.31,ESE,114,0.0,6.0,52,0.00,,,0.00,Wunderground v.1.15,2013-03-10 10:03:00,
2013-03-10 06:05:00,42.7,26.3,30.31,ESE,114,0.0,6.0,52,0.00,,,0.00,Wunderground v.1.15,2013-03-10 10:05:00,
2013-03-10 06:07:00,42.6,26.6,30.31,ESE,115,0.0,6.0,53,0.00,,,0.00,Wunderground v.1.15,2013-03-10 10:07:00,
2013-03-10 06:11:00,42.3,26.4,30.30,ESE,114,0.0,0.0,53,0.00,,,0.00,Wunderground v.1.15,2013-03-10 10:11:00,
2013-03-10 06:12:00,42.3,26.4,30.30,ESE,114,0.0,0.0,53,0.00,,,0.00,Wunderground v.1.15,2013-03-10 10:12:00,
2013-03-10 06:13:00,42.2,26.3,30.30,ESE,114,0.0,0.0,53,0.00,,,0.00,Wunderground v.1.15,2013-03-10 10:13:00,
2013-03-10 06:14:00,42.2,26.3,30.30,SSE,155,0.0,1.0,53,0.00,,,0.00,Wunderground v.1.15,2013-03-10 10:14:00,
2013-03-10 06:17:00,42.4,26.5,30.31,SSE,149,0.0,1.0,53,0.00,,,0.00,Wunderground v.1.15,2013-03-10 10:17:00,
2013-03-10 06:19:00,42.6,26.2,30.30,SE,131,0.0,1.0,52,0.00,,,0.00,Wunderground v.1.15,2013-03-10 10:19:00,
2013-03-10 06:23:00,42.9,26.0,30.31,SE,131,0.0,0.0,51,0.00,,,0.00,Wunderground v.1.15,2013-03-10 10:23:00,
2013-03-10 06:24:00,43.0,26.1,30.31,ESE,113,0.0,2.0,51,0.00,,,0.00,Wunderground v.1.15,2013-03-10 10:24:00,
2013-03-10 06:26:00,43.1,26.2,30.31,ESE,113,1.0,2.0,51,0.00,,,0.00,Wunderground v.1.15,2013-03-10 10:26:00,
2013-03-10 06:31:00,43.2,26.3,30.31,ESE,113,0.0,5.0,51,0.00,,,0.00,Wunderground v.1.15,2013-03-10 10:31:00,
2013-03-10 06:33:00,43.1,26.2,30.31,ESE,113,0.0,5.0,51,0.00,,,0.00,Wunderground v.1.15,2013-03-10 10:33:00,
2013-03-10 06:36:00,43.0,26.1,30.31,ESE,113,0.0,5.0,51,0.00,,,0.00,Wunderground v.1.15,2013-03-10 10:36:00,
2013-03-10 06:38:00,43.0,26.1,30.31,SE,126,0.0,5.0,51,0.00,,,0.00,Wunderground v.1.15,2013-03-10 10:38:00,
2013-03-10 06:40:00,43.0,26.1,30.31,SE,126,0.0,0.0,51,0.00,,,0.00,Wunderground v.1.15,2013-03-10 10:40:00,
2013-03-10 06:41:00,43.0,26.1,30.31,SE,126,0.0,0.0,51,0.00,,,0.00,Wunderground v.1.15,2013-03-10 10:41:00,
2013-03-10 06:44:00,42.9,26.0,30.31,SE,125,0.0,0.0,51,0.00,,,0.00,Wunderground v.1.15,2013-03-10 10:44:00,
2013-03-10 06:47:00,43.0,26.1,30.31,SE,126,0.0,0.0,51,0.00,,,0.00,Wunderground v.1.15,2013-03-10 10:47:00,
2013-03-10 06:50:00,43.1,26.2,30.31,SE,126,0.0,0.0,51,0.00,,,0.00,Wunderground v.1.15,2013-03-10 10:50:00,
2013-03-10 06:51:00,43.1,25.7,30.31,SE,126,0.0,0.0,50,0.00,,,0.00,Wunderground v.1.15,2013-03-10 10:51:00,
2013-03-10 06:52:00,43.1,26.2,30.31,SE,126,0.0,0.0,51,0.00,,,0.00,Wunderground v.1.15,2013-03-10 10:52:00,
2013-03-10 06:57:00,43.1,26.2,30.30,ESE,123,0.0,5.0,51,0.00,,,0.00,Wunderground v.1.15,2013-03-10 10:57:00,
2013-03-10 06:58:00,43.2,26.3,30.30,SE,124,1.0,5.0,51,0.00,,,0.00,Wunderground v.1.15,2013-03-10 10:58:00,
2013-03-10 06:59:00,43.3,26.4,30.30,ESE,123,1.0,5.0,51,0.00,,,0.00,Wunderground v.1.15,2013-03-10 10:59:00,
2013-03-10 07:02:00,43.1,26.2,30.30,SE,124,1.0,5.0,51,0.00,,,0.00,Wunderground v.1.15,2013-03-10 11:02:00,
2013-03-10 07:05:00,43.2,26.3,30.30,SE,124,1.0,5.0,51,0.00,,,0.00,Wunderground v.1.15,2013-03-10 11:05:00,
2013-03-10 07:08:00,43.2,26.3,30.30,SSE,149,1.0,5.0,51,0.00,,,0.00,Wunderground v.1.15,2013-03-10 11:08:00,
2013-03-10 07:10:00,43.2,26.3,30.30,ESE,123,1.0,2.0,51,0.00,,,0.00,Wunderground v.1.15,2013-03-10 11:10:00,
2013-03-10 07:11:00,43.2,26.3,30.30,ESE,119,1.0,6.0,51,0.00,,,0.00,Wunderground v.1.15,2013-03-10 11:11:00,
2013-03-10 07:16:00,43.1,26.7,30.30,SSE,155,1.0,6.0,52,0.00,,,0.00,Wunderground v.1.15,2013-03-10 11:16:00,
2013-03-10 07:17:00,42.9,26.5,30.30,SSE,150,1.0,6.0,52,0.00,,,0.00,Wunderground v.1.15,2013-03-10 11:17:00,
2013-03-10 07:21:00,42.6,26.6,30.30,ESE,109,1.0,5.0,53,0.00,,,0.00,Wunderground v.1.15,2013-03-10 11:21:00,
2013-03-10 07:23:00,42.7,26.3,30.30,ESE,113,1.0,5.0,52,0.00,,,0.00,Wunderground v.1.15,2013-03-10 11:23:00,
2013-03-10 07:24:00,42.7,26.3,30.30,ESE,119,1.0,5.0,52,0.00,,,0.00,Wunderground v.1.15,2013-03-10 11:24:00,
2013-03-10 07:25:00,42.7,26.3,30.30,ESE,123,1.0,5.0,52,0.00,,,0.00,Wunderground v.1.15,2013-03-10 11:25:00,
2013-03-10 07:28:00,42.8,26.8,30.30,ESE,114,1.0,5.0,53,0.00,,,0.00,Wunderground v.1.15,2013-03-10 11:28:00,
2013-03-10 07:31:00,42.9,26.5,30.30,ESE,123,1.0,6.0,52,0.00,,,0.00,Wunderground v.1.15,2013-03-10 11:31:00,
2013-03-10 07:32:00,42.9,26.5,30.30,ESE,121,1.0,6.0,52,0.00,,,0.00,Wunderground v.1.15,2013-03-10 11:32:00,
2013-03-10 07:37:00,42.8,26.8,30.30,SE,130,1.0,6.0,53,0.00,,,0.00,Wunderground v.1.15,2013-03-10 11:37:00,
2013-03-10 07:38:00,42.8,26.4,30.30,East,86,1.0,6.0,52,0.00,,,0.00,Wunderground v.1.15,2013-03-10 11:38:00,
2013-03-10 07:39:00,42.9,26.5,30.30,ESE,118,1.0,6.0,52,0.00,,,0.00,Wunderground v.1.15,2013-03-10 11:39:00,
2013-03-10 07:44:00,43.1,26.7,30.30,ESE,115,1.0,1.0,52,0.00,,,0.00,Wunderground v.1.15,2013-03-10 11:44:00,
2013-03-10 07:46:00,43.2,26.3,30.30,SE,132,1.0,9.0,51,0.00,,,0.00,Wunderground v.1.15,2013-03-10 11:46:00,
2013-03-10 07:50:00,43.5,27.0,30.30,SE,126,2.0,2.0,52,0.00,,,0.00,Wunderground v.1.15,2013-03-10 11:50:00,
2013-03-10 07:51:00,43.5,27.0,30.30,SE,126,1.0,2.0,52,0.00,,,0.00,Wunderground v.1.15,2013-03-10 11:51:00,
2013-03-10 07:52:00,43.5,27.0,30.30,SE,132,1.0,2.0,52,0.00,,,0.00,Wunderground v.1.15,2013-03-10 11:52:00,
2013-03-10 07:56:00,44.0,27.0,30.30,SE,132,2.0,4.0,51,0.00,,,0.00,Wunderground v.1.15,2013-03-10 11:56:00,
2013-03-10 07:58:00,43.9,26.9,30.30,ESE,122,1.0,4.0,51,0.00,,,0.00,Wunderground v.1.15,2013-03-10 11:58:00,
2013-03-10 08:00:00,43.9,26.9,30.30,SE,134,1.0,1.0,51,0.00,,,0.00,Wunderground v.1.15,2013-03-10 12:00:00,
2013-03-10 08:02:00,44.0,27.0,30.30,ESE,119,2.0,7.0,51,0.00,,,0.00,Wunderground v.1.15,2013-03-10 12:02:00,
2013-03-10 08:04:00,44.1,27.1,30.30,SE,134,2.0,7.0,51,0.00,,,0.00,Wunderground v.1.15,2013-03-10 12:04:00,
2013-03-10 08:08:00,44.1,27.1,30.30,South,180,1.0,7.0,51,0.00,,,0.00,Wunderground v.1.15,2013-03-10 12:08:00,
2013-03-10 08:12:00,44.0,27.0,30.30,ESE,121,1.0,1.0,51,0.00,,,0.00,Wunderground v.1.15,2013-03-10 12:12:00,
2013-03-10 08:14:00,44.0,27.5,30.30,ESE,121,1.0,1.0,52,0.00,,,0.00,Wunderground v.1.15,2013-03-10 12:14:00,
2013-03-10 08:19:00,43.8,27.3,30.30,ESE,110,1.0,2.0,52,0.00,,,0.00,Wunderground v.1.15,2013-03-10 12:19:00,
2013-03-10 08:21:00,43.8,27.3,30.30,ESE,111,1.0,1.0,52,0.00,,,0.00,Wunderground v.1.15,2013-03-10 12:21:00,
2013-03-10 08:22:00,43.8,27.3,30.30,ESE,111,1.0,1.0,52,0.00,,,0.00,Wunderground v.1.15,2013-03-10 12:22:00,
2013-03-10 08:25:00,43.7,27.2,30.30,SE,125,0.0,5.0,52,0.00,,,0.00,Wunderground v.1.15,2013-03-10 12:25:00,
2013-03-10 08:27:00,43.8,27.3,30.31,ESE,107,1.0,5.0,52,0.00,,,0.00,Wunderground v.1.15,2013-03-10 12:27:00,
2013-03-10 08:28:00,43.9,27.4,30.31,ESE,109,1.0,5.0,52,0.00,,,0.00,Wunderground v.1.15,2013-03-10 12:28:00,
2013-03-10 08:29:00,43.9,27.4,30.31,ESE,109,1.0,5.0,52,0.00,,,0.00,Wunderground v.1.15,2013-03-10 12:29:00,
2013-03-10 08:32:00,43.9,27.4,30.31,ESE,109,1.0,11.0,52,0.00,,,0.00,Wunderground v.1.15,2013-03-10 12:32:00,
2013-03-10 08:34:00,43.9,27.4,30.31,ESE,109,1.0,11.0,52,0.00,,,0.00,Wunderground v.1.15,2013-03-10 12:34:00,
2013-03-10 08:35:00,43.9,27.4,30.31,ESE,109,1.0,11.0,52,0.00,,,0.00,Wunderground v.1.15,2013-03-10 12:35:00,
2013-03-10 08:36:00,43.9,27.4,30.32,ESE,109,1.0,11.0,52,0.00,,,0.00,Wunderground v.1.15,2013-03-10 12:36:00,
2013-03-10 08:41:00,43.8,27.3,30.31,ESE,109,0.0,0.0,52,0.00,,,0.00,Wunderground v.1.15,2013-03-10 12:41:00,
2013-03-10 08:42:00,43.9,27.4,30.31,ESE,109,0.0,0.0,52,0.00,,,0.00,Wunderground v.1.15,2013-03-10 12:42:00,
2013-03-10 08:43:00,43.9,27.4,30.31,ESE,111,0.0,0.0,52,0.00,,,0.00,Wunderground v.1.15,2013-03-10 12:43:00,
2013-03-10 08:44:00,43.9,27.4,30.31,ESE,111,0.0,0.0,52,0.00,,,0.00,Wunderground v.1.15,2013-03-10 12:44:00,
2013-03-10 08:48:00,44.0,27.5,30.32,ESE,119,0.0,1.0,52,0.00,,,0.00,Wunderground v.1.15,2013-03-10 12:48:00,
2013-03-10 08:50:00,44.1,27.6,30.32,ESE,120,0.0,0.0,52,0.00,,,0.00,Wunderground v.1.15,2013-03-10 12:50:00,
2013-03-10 08:54:00,44.2,27.7,30.32,ESE,123,0.0,0.0,52,0.00,,,0.00,Wunderground v.1.15,2013-03-10 12:54:00,
2013-03-10 08:57:00,44.3,27.8,30.32,ESE,123,0.0,0.0,52,0.00,,,0.00,Wunderground v.1.15,2013-03-10 12:57:00,
2013-03-10 08:59:00,44.3,28.2,30.32,ESE,123,0.0,1.0,53,0.00,,,0.00,Wunderground v.1.15,2013-03-10 12:59:00,
2013-03-10 09:00:00,44.2,27.7,30.32,ESE,122,0.0,0.0,52,0.00,,,0.00,Wunderground v.1.15,2013-03-10 13:00:00,
2013-03-10 09:05:00,44.2,27.7,30.32,ESE,123,0.0,8.0,52,0.00,,,0.00,Wunderground v.1.15,2013-03-10 13:05:00,
2013-03-10 09:06:00,44.2,27.7,30.32,ESE,122,0.0,8.0,52,0.00,,,0.00,Wunderground v.1.15,2013-03-10 13:06:00,
2013-03-10 09:11:00,44.2,27.7,30.32,ESE,121,0.0,0.0,52,0.00,,,0.00,Wunderground v.1.15,2013-03-10 13:11:00,
2013-03-10 09:12:00,44.2,28.1,30.32,ESE,121,0.0,0.0,53,0.00,,,0.00,Wunderground v.1.15,2013-03-10 13:12:00,
2013-03-10 09:13:00,44.2,28.1,30.32,ESE,121,0.0,0.0,53,0.00,,,0.00,Wunderground v.1.15,2013-03-10 13:13:00,
2013-03-10 09:18:00,44.2,28.1,30.32,ESE,121,0.0,0.0,53,0.00,,,0.00,Wunderground v.1.15,2013-03-10 13:18:00,
2013-03-10 09:19:00,44.2,28.1,30.32,ESE,121,0.0,0.0,53,0.00,,,0.00,Wunderground v.1.15,2013-03-10 13:19:00,
2013-03-10 09:23:00,44.4,27.9,30.32,WSW,242,0.0,0.0,52,0.00,,,0.00,Wunderground v.1.15,2013-03-10 13:23:00,
2013-03-10 09:24:00,44.5,28.4,30.32,WSW,242,0.0,0.0,53,0.00,,,0.00,Wunderground v.1.15,2013-03-10 13:24:00,
2013-03-10 09:28:00,44.9,28.3,30.32,SSE,149,0.0,0.0,52,0.00,,,0.00,Wunderground v.1.15,2013-03-10 13:28:00,
2013-03-10 09:32:00,45.1,28.5,30.32,SSE,153,0.0,5.0,52,0.00,,,0.00,Wunderground v.1.15,2013-03-10 13:32:00,
2013-03-10 09:33:00,45.2,28.6,30.32,WSW,240,0.0,5.0,52,0.00,,,0.00,Wunderground v.1.15,2013-03-10 13:33:00,
2013-03-10 09:34:00,45.2,28.6,30.32,WSW,240,0.0,5.0,52,0.00,,,0.00,Wunderground v.1.15,2013-03-10 13:34:00,
2013-03-10 09:39:00,45.2,28.6,30.32,SE,134,0.0,5.0,52,0.00,,,0.00,Wunderground v.1.15,2013-03-10 13:39:00,
2013-03-10 09:41:00,45.3,28.7,30.32,South,175,0.0,0.0,52,0.00,,,0.00,Wunderground v.1.15,2013-03-10 13:41:00,
2013-03-10 09:43:00,45.3,28.2,30.32,South,176,0.0,0.0,51,0.00,,,0.00,Wunderground v.1.15,2013-03-10 13:43:00,
2013-03-10 09:44:00,45.2,28.6,30.32,West,259,0.0,0.0,52,0.00,,,0.00,Wunderground v.1.15,2013-03-10 13:44:00,
2013-03-10 09:46:00,45.2,29.1,30.32,West,259,0.0,0.0,53,0.00,,,0.00,Wunderground v.1.15,2013-03-10 13:46:00,
2013-03-10 09:50:00,45.0,28.9,30.32,West,279,0.0,2.0,53,0.00,,,0.00,Wunderground v.1.15,2013-03-10 13:50:00,
2013-03-10 09:51:00,45.0,28.4,30.32,West,279,0.0,2.0,52,0.00,,,0.00,Wunderground v.1.15,2013-03-10 13:51:00,
2013-03-10 09:52:00,45.0,28.9,30.32,West,271,0.0,2.0,53,0.00,,,0.00,Wunderground v.1.15,2013-03-10 13:52:00,
2013-03-10 09:56:00,45.0,28.4,30.32,West,273,1.0,2.0,52,0.00,,,0.00,Wunderground v.1.15,2013-03-10 13:56:00,
2013-03-10 09:57:00,45.0,28.9,30.32,West,273,1.0,2.0,53,0.00,,,0.00,Wunderground v.1.15,2013-03-10 13:57:00,
2013-03-10 09:59:00,45.0,28.9,30.32,West,273,1.0,2.0,53,0.00,,,0.00,Wunderground v.1.15,2013-03-10 13:59:00,
2013-03-10 10:03:00,45.0,29.3,30.32,West,263,0.0,4.0,54,0.00,,,0.00,Wunderground v.1.15,2013-03-10 14:03:00,
2013-03-10 10:04:00,45.0,28.9,30.32,West,263,0.0,4.0,53,0.00,,,0.00,Wunderground v.1.15,2013-03-10 14:04:00,
2013-03-10 10:07:00,45.1,29.4,30.32,West,261,0.0,4.0,54,0.00,,,0.00,Wunderground v.1.15,2013-03-10 14:07:00,
2013-03-10 10:09:00,45.2,29.5,30.32,West,261,0.0,4.0,54,0.00,,,0.00,Wunderground v.1.15,2013-03-10 14:09:00,
2013-03-10 10:15:00,45.5,29.3,30.32,WSW,257,0.0,0.0,53,0.00,,,0.00,Wunderground v.1.15,2013-03-10 14:15:00,
2013-03-10 10:17:00,45.6,29.4,30.33,West,259,0.0,1.0,53,0.00,,,0.00,Wunderground v.1.15,2013-03-10 14:17:00,
2013-03-10 10:19:00,45.6,29.4,30.32,West,277,0.0,1.0,53,0.00,,,0.00,Wunderground v.1.15,2013-03-10 14:19:00,
2013-03-10 10:20:00,45.6,29.0,30.32,WSW,252,0.0,0.0,52,0.00,,,0.00,Wunderground v.1.15,2013-03-10 14:20:00,
2013-03-10 10:23:00,45.6,29.4,30.33,ESE,122,0.0,8.0,53,0.00,,,0.00,Wunderground v.1.15,2013-03-10 14:23:00,
2013-03-10 10:26:00,45.8,30.1,30.33,SSE,147,1.0,8.0,54,0.00,,,0.00,Wunderground v.1.15,2013-03-10 14:26:00,
2013-03-10 10:28:00,45.8,29.6,30.32,SW,232,1.0,8.0,53,0.00,,,0.00,Wunderground v.1.15,2013-03-10 14:28:00,
2013-03-10 10:29:00,45.8,29.6,30.32,SW,226,1.0,8.0,53,0.00,,,0.00,Wunderground v.1.15,2013-03-10 14:29:00,
2013-03-10 10:35:00,46.3,30.1,30.32,WSW,248,0.0,5.0,53,0.00,,,0.00,Wunderground v.1.15,2013-03-10 14:35:00,
2013-03-10 10:37:00,46.4,29.7,30.32,West,269,1.0,5.0,52,0.00,,,0.00,Wunderground v.1.15,2013-03-10 14:37:00,
2013-03-10 10:38:00,46.4,30.2,30.32,WSW,242,0.0,5.0,53,0.00,,,0.00,Wunderground v.1.15,2013-03-10 14:38:00,
2013-03-10 10:39:00,46.4,29.7,30.32,West,259,0.0,5.0,52,0.00,,,0.00,Wunderground v.1.15,2013-03-10 14:39:00,
2013-03-10 10:42:00,46.4,29.7,30.32,West,264,1.0,5.0,52,0.00,,,0.00,Wunderground v.1.15,2013-03-10 14:42:00,
2013-03-10 10:45:00,46.5,29.3,30.32,SSE,164,1.0,5.0,51,0.00,,,0.00,Wunderground v.1.15,2013-03-10 14:45:00,
2013-03-10 10:47:00,46.6,29.4,30.32,West,267,1.0,5.0,51,0.00,,,0.00,Wunderground v.1.15,2013-03-10 14:47:00,
2013-03-10 10:48:00,46.7,30.0,30.32,SSW,213,1.0,5.0,52,0.00,,,0.00,Wunderground v.1.15,2013-03-10 14:48:00,
2013-03-10 10:49:00,46.7,30.0,30.32,SW,221,1.0,5.0,52,0.00,,,0.00,Wunderground v.1.15,2013-03-10 14:49:00,
2013-03-10 10:54:00,46.8,29.6,30.32,WSW,255,0.0,2.0,51,0.00,,,0.00,Wunderground v.1.15,2013-03-10 14:54:00,
2013-03-10 10:56:00,46.8,29.6,30.32,WSW,257,0.0,2.0,51,0.00,,,0.00,Wunderground v.1.15,2013-03-10 14:56:00,
2013-03-10 10:58:00,47.0,29.3,30.32,SSW,211,0.0,2.0,50,0.00,,,0.00,Wunderground v.1.15,2013-03-10 14:58:00,
2013-03-10 11:00:00,47.1,29.4,30.32,West,263,0.0,0.0,50,0.00,,,0.00,Wunderground v.1.15,2013-03-10 15:00:00,
2013-03-10 11:01:00,47.2,30.0,30.32,WSW,249,0.0,8.0,51,0.00,,,0.00,Wunderground v.1.15,2013-03-10 15:01:00,
2013-03-10 11:03:00,47.3,29.6,30.32,West,272,1.0,8.0,50,0.00,,,0.00,Wunderground v.1.15,2013-03-10 15:03:00,
2013-03-10 11:05:00,47.4,29.2,30.32,West,268,0.0,8.0,49,0.00,,,0.00,Wunderground v.1.15,2013-03-10 15:05:00,
2013-03-10 11:08:00,47.7,30.0,30.32,West,266,1.0,8.0,50,0.00,,,0.00,Wunderground v.1.15,2013-03-10 15:08:00,
2013-03-10 11:10:00,47.8,29.5,30.32,WNW,286,1.0,4.0,49,0.00,,,0.00,Wunderground v.1.15,2013-03-10 15:10:00,
2013-03-10 11:15:00,47.9,29.1,30.32,West,260,1.0,4.0,48,0.00,,,0.00,Wunderground v.1.15,2013-03-10 15:15:00,
2013-03-10 11:16:00,47.9,29.1,30.32,West,266,1.0,4.0,48,0.00,,,0.00,Wunderground v.1.15,2013-03-10 15:16:00,
2013-03-10 11:17:00,47.9,29.1,30.32,West,278,2.0,4.0,48,0.00,,,0.00,Wunderground v.1.15,2013-03-10 15:17:00,
2013-03-10 11:20:00,48.1,29.8,30.32,West,277,1.0,1.0,49,0.00,,,0.00,Wunderground v.1.15,2013-03-10 15:20:00,
2013-03-10 11:22:00,48.2,29.9,30.32,West,279,1.0,3.0,49,0.00,,,0.00,Wunderground v.1.15,2013-03-10 15:22:00,
2013-03-10 11:24:00,48.4,29.1,30.32,West,270,1.0,3.0,47,0.00,,,0.00,Wunderground v.1.15,2013-03-10 15:24:00,
2013-03-10 11:28:00,48.6,29.8,30.32,West,272,1.0,3.0,48,0.00,,,0.00,Wunderground v.1.15,2013-03-10 15:28:00,
2013-03-10 11:30:00,48.7,29.9,30.32,SW,236,1.0,1.0,48,0.00,,,0.00,Wunderground v.1.15,2013-03-10 15:30:00,
2013-03-10 11:31:00,48.8,29.4,30.32,WSW,244,1.0,8.0,47,0.00,,,0.00,Wunderground v.1.15,2013-03-10 15:31:00,
2013-03-10 11:33:00,48.9,29.5,30.32,SE,126,1.0,8.0,47,0.00,,,0.00,Wunderground v.1.15,2013-03-10 15:33:00,
2013-03-10 11:35:00,48.9,29.5,30.32,WSW,244,1.0,8.0,47,0.00,,,0.00,Wunderground v.1.15,2013-03-10 15:35:00,
2013-03-10 11:38:00,49.2,29.8,30.32,South,179,1.0,8.0,47,0.00,,,0.00,Wunderground v.1.15,2013-03-10 15:38:00,
2013-03-10 11:39:00,49.2,30.3,30.32,SSW,211,1.0,8.0,48,0.00,,,0.00,Wunderground v.1.15,2013-03-10 15:39:00,
2013-03-10 11:42:00,49.2,29.8,30.32,WNW,283,1.0,3.0,47,0.00,,,0.00,Wunderground v.1.15,2013-03-10 15:42:00,
2013-03-10 11:44:00,49.1,29.2,30.32,West,265,1.0,3.0,46,0.00,,,0.00,Wunderground v.1.15,2013-03-10 15:44:00,
2013-03-10 11:45:00,49.1,29.2,30.32,WNW,285,1.0,3.0,46,0.00,,,0.00,Wunderground v.1.15,2013-03-10 15:45:00,
2013-03-10 11:48:00,49.1,29.2,30.32,West,271,1.0,3.0,46,0.00,,,0.00,Wunderground v.1.15,2013-03-10 15:48:00,
2013-03-10 11:50:00,49.1,29.2,30.32,WSW,244,1.0,1.0,46,0.00,,,0.00,Wunderground v.1.15,2013-03-10 15:50:00,
2013-03-10 11:51:00,49.1,29.7,30.32,West,267,1.0,1.0,47,0.00,,,0.00,Wunderground v.1.15,2013-03-10 15:51:00,
2013-03-10 11:53:00,49.0,29.1,30.32,WNW,294,1.0,8.0,46,0.00,,,0.00,Wunderground v.1.15,2013-03-10 15:53:00,
2013-03-10 11:57:00,49.0,30.7,30.32,SSW,192,1.0,8.0,49,0.00,,,0.00,Wunderground v.1.15,2013-03-10 15:57:00,
2013-03-10 11:58:00,49.1,30.7,30.32,West,271,1.0,8.0,49,0.00,,,0.00,Wunderground v.1.15,2013-03-10 15:58:00,
2013-03-10 12:03:00,49.5,30.1,30.31,West,269,0.0,8.0,47,0.00,,,0.00,Wunderground v.1.15,2013-03-10 16:03:00,
2013-03-10 12:05:00,49.6,30.2,30.31,SSW,200,0.0,8.0,47,0.00,,,0.00,Wunderground v.1.15,2013-03-10 16:05:00,
2013-03-10 12:08:00,49.9,30.5,30.31,South,180,0.0,8.0,47,0.00,,,0.00,Wunderground v.1.15,2013-03-10 16:08:00,
2013-03-10 12:09:00,49.9,29.9,30.31,SSW,198,0.0,8.0,46,0.00,,,0.00,Wunderground v.1.15,2013-03-10 16:09:00,
2013-03-10 12:11:00,50.0,30.0,30.32,WNW,292,1.0,4.0,46,0.00,,,0.00,Wunderground v.1.15,2013-03-10 16:11:00,
2013-03-10 12:12:00,50.0,30.5,30.32,WNW,290,1.0,4.0,47,0.00,,,0.00,Wunderground v.1.15,2013-03-10 16:12:00,
2013-03-10 12:16:00,50.0,31.1,30.32,SE,128,1.0,4.0,48,0.00,,,0.00,Wunderground v.1.15,2013-03-10 16:16:00,
2013-03-10 12:19:00,50.2,30.7,30.32,West,267,1.0,4.0,47,0.00,,,0.00,Wunderground v.1.15,2013-03-10 16:19:00,
2013-03-10 12:20:00,50.3,30.3,30.31,SE,127,1.0,1.0,46,0.00,,,0.00,Wunderground v.1.15,2013-03-10 16:20:00,
2013-03-10 12:21:00,50.2,29.7,30.32,WSW,238,1.0,2.0,45,0.00,,,0.00,Wunderground v.1.15,2013-03-10 16:21:00,
2013-03-10 12:23:00,50.0,29.5,30.31,SW,236,2.0,4.0,45,0.00,,,0.00,Wunderground v.1.15,2013-03-10 16:23:00,
2013-03-10 12:27:00,49.9,29.4,30.31,South,190,2.0,4.0,45,0.00,,,0.00,Wunderground v.1.15,2013-03-10 16:27:00,
2013-03-10 12:29:00,50.1,29.6,30.32,SE,142,2.0,5.0,45,0.00,,,0.00,Wunderground v.1.15,2013-03-10 16:29:00,
2013-03-10 12:32:00,50.4,29.8,30.31,ENE,71,1.0,10.0,45,0.00,,,0.00,Wunderground v.1.15,2013-03-10 16:32:00,
2013-03-10 12:33:00,50.5,29.9,30.32,WSW,254,1.0,10.0,45,0.00,,,0.00,Wunderground v.1.15,2013-03-10 16:33:00,
2013-03-10 12:36:00,50.7,29.6,30.31,SW,223,1.0,10.0,44,0.00,,,0.00,Wunderground v.1.15,2013-03-10 16:36:00,
2013-03-10 12:38:00,50.8,29.6,30.31,South,186,1.0,10.0,44,0.00,,,0.00,Wunderground v.1.15,2013-03-10 16:38:00,
2013-03-10 12:39:00,50.8,29.6,30.31,South,186,1.0,10.0,44,0.00,,,0.00,Wunderground v.1.15,2013-03-10 16:39:00,
2013-03-10 12:41:00,51.0,29.8,30.31,SW,226,1.0,1.0,44,0.00,,,0.00,Wunderground v.1.15,2013-03-10 16:41:00,
2013-03-10 12:46:00,51.4,30.7,30.31,SSE,167,1.0,1.0,45,0.00,,,0.00,Wunderground v.1.15,2013-03-10 16:46:00,
2013-03-10 12:47:00,51.5,30.8,30.31,SSE,167,1.0,1.0,45,0.00,,,0.00,Wunderground v.1.15,2013-03-10 16:47:00,
2013-03-10 12:49:00,51.7,31.6,30.30,West,260,1.0,3.0,46,0.00,,,0.00,Wunderground v.1.15,2013-03-10 16:49:00,
2013-03-10 12:52:00,52.0,30.2,30.30,ESE,113,1.0,4.0,43,0.00,,,0.00,Wunderground v.1.15,2013-03-10 16:52:00,
2013-03-10 12:54:00,52.1,30.8,30.30,SSW,208,1.0,4.0,44,0.00,,,0.00,Wunderground v.1.15,2013-03-10 16:54:00,
2013-03-10 12:55:00,52.1,31.4,30.30,West,271,1.0,4.0,45,0.00,,,0.00,Wunderground v.1.15,2013-03-10 16:55:00,
2013-03-10 12:56:00,52.2,30.9,30.30,WNW,290,1.0,4.0,44,0.00,,,0.00,Wunderground v.1.15,2013-03-10 16:56:00,
2013-03-10 13:01:00,52.3,31.0,30.30,WSW,256,1.0,11.0,44,0.00,,,0.00,Wunderground v.1.15,2013-03-10 17:01:00,
2013-03-10 13:02:00,52.3,29.9,30.30,WSW,257,1.0,11.0,42,0.00,,,0.00,Wunderground v.1.15,2013-03-10 17:02:00,
2013-03-10 13:03:00,52.3,30.4,30.30,ESE,102,1.0,11.0,43,0.00,,,0.00,Wunderground v.1.15,2013-03-10 17:03:00,
2013-03-10 13:06:00,52.3,30.4,30.30,SSE,167,2.0,11.0,43,0.00,,,0.00,Wunderground v.1.15,2013-03-10 17:06:00,
2013-03-10 13:09:00,52.5,30.0,30.30,South,179,2.0,11.0,42,0.00,,,0.00,Wunderground v.1.15,2013-03-10 17:09:00,
2013-03-10 13:11:00,52.5,31.2,30.30,WSW,253,1.0,2.0,44,0.00,,,0.00,Wunderground v.1.15,2013-03-10 17:11:00,
2013-03-10 13:13:00,52.7,31.4,30.30,WSW,252,1.0,5.0,44,0.00,,,0.00,Wunderground v.1.15,2013-03-10 17:13:00,
2013-03-10 13:16:00,52.8,30.3,30.30,SE,131,1.0,11.0,42,0.00,,,0.00,Wunderground v.1.15,2013-03-10 17:16:00,
2013-03-10 13:17:00,52.7,30.2,30.29,SSE,154,1.0,11.0,42,0.00,,,0.00,Wunderground v.1.15,2013-03-10 17:17:00,
2013-03-10 13:22:00,52.7,30.2,30.29,ENE,59,1.0,3.0,42,0.00,,,0.00,Wunderground v.1.15,2013-03-10 17:22:00,
2013-03-10 13:25:00,52.7,30.2,30.29,SW,216,1.0,4.0,42,0.00,,,0.00,Wunderground v.1.15,2013-03-10 17:25:00,
2013-03-10 13:28:00,52.6,30.1,30.28,WSW,248,1.0,4.0,42,0.00,,,0.00,Wunderground v.1.15,2013-03-10 17:28:00,
2013-03-10 13:29:00,52.7,30.2,30.28,West,265,1.0,4.0,42,0.00,,,0.00,Wunderground v.1.15,2013-03-10 17:29:00,
2013-03-10 13:30:00,52.7,29.6,30.28,SSE,149,1.0,4.0,41,0.00,,,0.00,Wunderground v.1.15,2013-03-10 17:30:00,
2013-03-10 13:34:00,52.5,28.8,30.29,WSW,257,2.0,9.0,40,0.00,,,0.00,Wunderground v.1.15,2013-03-10 17:34:00,
2013-03-10 13:35:00,52.4,29.4,30.28,ESE,113,2.0,9.0,41,0.00,,,0.00,Wunderground v.1.15,2013-03-10 17:35:00,
2013-03-10 13:37:00,52.4,30.0,30.28,South,180,2.0,9.0,42,0.00,,,0.00,Wunderground v.1.15,2013-03-10 17:37:00,
2013-03-10 13:40:00,52.8,29.7,30.28,SE,142,2.0,2.0,41,0.00,,,0.00,Wunderground v.1.15,2013-03-10 17:40:00,
2013-03-10 13:43:00,53.2,29.5,30.28,SE,144,1.0,5.0,40,0.00,,,0.00,Wunderground v.1.15,2013-03-10 17:43:00,
2013-03-10 13:44:00,53.2,29.5,30.28,SE,130,1.0,5.0,40,0.00,,,0.00,Wunderground v.1.15,2013-03-10 17:44:00,
2013-03-10 13:47:00,53.2,29.5,30.28,SSE,154,2.0,5.0,40,0.00,,,0.00,Wunderground v.1.15,2013-03-10 17:47:00,
2013-03-10 13:48:00,53.3,28.9,30.28,ESE,111,2.0,5.0,39,0.00,,,0.00,Wunderground v.1.15,2013-03-10 17:48:00,
2013-03-10 13:50:00,53.3,28.9,30.28,NE,51,1.0,1.0,39,0.00,,,0.00,Wunderground v.1.15,2013-03-10 17:50:00,
2013-03-10 13:53:00,53.7,30.5,30.28,ENE,78,2.0,2.0,41,0.00,,,0.00,Wunderground v.1.15,2013-03-10 17:53:00,
2013-03-10 13:54:00,53.7,30.5,30.27,ENE,78,2.0,2.0,41,0.00,,,0.00,Wunderground v.1.15,2013-03-10 17:54:00,
2013-03-10 13:59:00,54.5,30.0,30.27,NNE,21,1.0,2.0,39,0.00,,,0.00,Wunderground v.1.15,2013-03-10 17:59:00,
2013-03-10 14:00:00,54.6,29.5,30.28,West,272,1.0,3.0,38,0.00,,,0.00,Wunderground v.1.15,2013-03-10 18:00:00,
2013-03-10 14:02:00,54.6,29.5,30.27,West,271,1.0,11.0,38,0.00,,,0.00,Wunderground v.1.15,2013-03-10 18:02:00,
2013-03-10 14:04:00,54.4,28.6,30.27,SW,216,1.0,11.0,37,0.00,,,0.00,Wunderground v.1.15,2013-03-10 18:04:00,
2013-03-10 14:08:00,54.4,28.0,30.27,South,178,2.0,11.0,36,0.00,,,0.00,Wunderground v.1.15,2013-03-10 18:08:00,
2013-03-10 14:09:00,54.3,28.6,30.27,South,171,2.0,11.0,37,0.00,,,0.00,Wunderground v.1.15,2013-03-10 18:09:00,
2013-03-10 14:10:00,54.2,28.5,30.27,SSE,168,2.0,2.0,37,0.00,,,0.00,Wunderground v.1.15,2013-03-10 18:10:00,
2013-03-10 14:13:00,54.1,29.0,30.26,West,265,2.0,3.0,38,0.00,,,0.00,Wunderground v.1.15,2013-03-10 18:13:00,
2013-03-10 14:17:00,54.2,29.1,30.26,SSW,211,2.0,3.0,38,0.00,,,0.00,Wunderground v.1.15,2013-03-10 18:17:00,
2013-03-10 14:18:00,54.3,28.6,30.26,West,275,2.0,3.0,37,0.00,,,0.00,Wunderground v.1.15,2013-03-10 18:18:00,
2013-03-10 14:21:00,54.6,30.1,30.26,SW,227,1.0,3.0,39,0.00,,,0.00,Wunderground v.1.15,2013-03-10 18:21:00,
2013-03-10 14:24:00,55.0,30.5,30.27,SSE,164,1.0,3.0,39,0.00,,,0.00,Wunderground v.1.15,2013-03-10 18:24:00,
2013-03-10 14:25:00,55.3,30.7,30.26,SE,144,1.0,3.0,39,0.00,,,0.00,Wunderground v.1.15,2013-03-10 18:25:00,
2013-03-10 14:27:00,55.5,30.3,30.26,WSW,242,1.0,3.0,38,0.00,,,0.00,Wunderground v.1.15,2013-03-10 18:27:00,
2013-03-10 14:30:00,55.9,30.6,30.26,SE,137,0.0,0.0,38,0.00,,,0.00,Wunderground v.1.15,2013-03-10 18:30:00,
2013-03-10 14:31:00,56.0,31.4,30.26,East,88,0.0,13.0,39,0.00,,,0.00,Wunderground v.1.15,2013-03-10 18:31:00,
2013-03-10 14:32:00,56.1,31.5,30.26,WSW,257,0.0,13.0,39,0.00,,,0.00,Wunderground v.1.15,2013-03-10 18:32:00,
2013-03-10 14:36:00,55.8,30.5,30.26,SSW,205,1.0,13.0,38,0.00,,,0.00,Wunderground v.1.15,2013-03-10 18:36:00,
2013-03-10 14:37:00,55.8,30.5,30.26,SE,127,1.0,13.0,38,0.00,,,0.00,Wunderground v.1.15,2013-03-10 18:37:00,
2013-03-10 14:41:00,56.1,30.8,30.25,East,86,1.0,6.0,38,0.00,,,0.00,Wunderground v.1.15,2013-03-10 18:41:00,
2013-03-10 14:43:00,55.8,30.5,30.25,SE,146,2.0,6.0,38,0.00,,,0.00,Wunderground v.1.15,2013-03-10 18:43:00,
2013-03-10 14:44:00,55.8,30.5,30.25,ESE,110,1.0,6.0,38,0.00,,,0.00,Wunderground v.1.15,2013-03-10 18:44:00,
2013-03-10 14:47:00,55.8,30.5,30.25,ESE,123,1.0,6.0,38,0.00,,,0.00,Wunderground v.1.15,2013-03-10 18:47:00,
2013-03-10 14:49:00,56.0,31.4,30.25,SW,225,2.0,6.0,39,0.00,,,0.00,Wunderground v.1.15,2013-03-10 18:49:00,
2013-03-10 14:55:00,56.2,30.9,30.25,ESE,115,1.0,2.0,38,0.00,,,0.00,Wunderground v.1.15,2013-03-10 18:55:00,
2013-03-10 14:56:00,56.3,30.3,30.25,SW,218,1.0,2.0,37,0.00,,,0.00,Wunderground v.1.15,2013-03-10 18:56:00,
2013-03-10 14:58:00,56.2,30.2,30.25,ESE,115,1.0,5.0,37,0.00,,,0.00,Wunderground v.1.15,2013-03-10 18:58:00,
2013-03-10 15:01:00,56.1,30.8,30.25,South,172,1.0,12.0,38,0.00,,,0.00,Wunderground v.1.15,2013-03-10 19:01:00,
2013-03-10 15:02:00,56.0,30.7,30.25,South,180,2.0,12.0,38,0.00,,,0.00,Wunderground v.1.15,2013-03-10 19:02:00,
2013-03-10 15:04:00,56.0,31.4,30.25,SSW,198,1.0,12.0,39,0.00,,,0.00,Wunderground v.1.15,2013-03-10 19:04:00,
2013-03-10 15:06:00,56.1,31.5,30.25,ESE,119,1.0,12.0,39,0.00,,,0.00,Wunderground v.1.15,2013-03-10 19:06:00,
2013-03-10 15:07:00,56.2,32.2,30.25,WSW,249,1.0,12.0,40,0.00,,,0.00,Wunderground v.1.15,2013-03-10 19:07:00,
2013-03-10 15:13:00,56.7,32.0,30.25,SSW,205,1.0,1.0,39,0.00,,,0.00,Wunderground v.1.15,2013-03-10 19:13:00,
2013-03-10 15:15:00,56.5,31.8,30.25,SSE,157,2.0,7.0,39,0.00,,,0.00,Wunderground v.1.15,2013-03-10 19:15:00,
2013-03-10 15:16:00,56.5,31.8,30.25,ESE,115,1.0,8.0,39,0.00,,,0.00,Wunderground v.1.15,2013-03-10 19:16:00,
2013-03-10 15:18:00,56.5,31.8,30.25,SW,232,1.0,8.0,39,0.00,,,0.00,Wunderground v.1.15,2013-03-10 19:18:00,
2013-03-10 15:23:00,56.2,30.9,30.25,NNE,28,2.0,4.0,38,0.00,,,0.00,Wunderground v.1.15,2013-03-10 19:23:00,
2013-03-10 15:24:00,56.2,31.5,30.25,WNW,288,2.0,4.0,39,0.00,,,0.00,Wunderground v.1.15,2013-03-10 19:24:00,
2013-03-10 15:25:00,56.3,31.6,30.25,SW,232,2.0,4.0,39,0.00,,,0.00,Wunderground v.1.15,2013-03-10 19:25:00,
2013-03-10 15:28:00,56.5,31.2,30.24,SE,141,1.0,4.0,38,0.00,,,0.00,Wunderground v.1.15,2013-03-10 19:28:00,
2013-03-10 15:30:00,56.6,31.9,30.25,SE,140,1.0,7.0,39,0.00,,,0.00,Wunderground v.1.15,2013-03-10 19:30:00,
2013-03-10 15:31:00,56.7,32.0,30.24,ESE,121,1.0,12.0,39,0.00,,,0.00,Wunderground v.1.15,2013-03-10 19:31:00,
2013-03-10 15:34:00,56.9,31.5,30.24,SE,126,1.0,12.0,38,0.00,,,0.00,Wunderground v.1.15,2013-03-10 19:34:00,
2013-03-10 15:36:00,56.4,31.1,30.24,SE,146,2.0,12.0,38,0.00,,,0.00,Wunderground v.1.15,2013-03-10 19:36:00,
2013-03-10 15:39:00,56.1,30.8,30.24,East,101,2.0,12.0,38,0.00,,,0.00,Wunderground v.1.15,2013-03-10 19:39:00,
2013-03-10 15:41:00,56.0,30.7,30.24,NE,42,3.0,3.0,38,0.00,,,0.00,Wunderground v.1.15,2013-03-10 19:41:00,
2013-03-10 15:47:00,56.4,31.7,30.24,West,263,1.0,4.0,39,0.00,,,0.00,Wunderground v.1.15,2013-03-10 19:47:00,
2013-03-10 15:48:00,56.6,32.5,30.24,SW,218,2.0,6.0,40,0.00,,,0.00,Wunderground v.1.15,2013-03-10 19:48:00,
2013-03-10 15:50:00,56.6,30.6,30.24,ESE,103,2.0,6.0,37,0.00,,,0.00,Wunderground v.1.15,2013-03-10 19:50:00,
2013-03-10 15:53:00,56.2,30.9,30.24,ESE,114,2.0,8.0,38,0.00,,,0.00,Wunderground v.1.15,2013-03-10 19:53:00,
2013-03-10 15:55:00,56.0,30.7,30.24,SE,138,2.0,8.0,38,0.00,,,0.00,Wunderground v.1.15,2013-03-10 19:55:00,
2013-03-10 15:56:00,55.9,30.6,30.24,SSE,150,2.0,8.0,38,0.00,,,0.00,Wunderground v.1.15,2013-03-10 19:56:00,
2013-03-10 16:01:00,56.3,31.6,30.24,SSW,211,2.0,10.0,39,0.00,,,0.00,Wunderground v.1.15,2013-03-10 20:01:00,
2013-03-10 16:03:00,56.4,31.1,30.24,WNW,290,2.0,10.0,38,0.00,,,0.00,Wunderground v.1.15,2013-03-10 20:03:00,
2013-03-10 16:04:00,56.4,31.7,30.24,SW,224,2.0,10.0,39,0.00,,,0.00,Wunderground v.1.15,2013-03-10 20:04:00,
2013-03-10 16:07:00,56.7,31.4,30.24,WSW,246,1.0,10.0,38,0.00,,,0.00,Wunderground v.1.15,2013-03-10 20:07:00,
2013-03-10 16:09:00,56.9,31.5,30.24,SW,233,1.0,10.0,38,0.00,,,0.00,Wunderground v.1.15,2013-03-10 20:09:00,
2013-03-10 16:13:00,56.9,31.5,30.24,South,188,1.0,2.0,38,0.00,,,0.00,Wunderground v.1.15,2013-03-10 20:13:00,
2013-03-10 16:14:00,56.9,31.5,30.24,South,188,1.0,2.0,38,0.00,,,0.00,Wunderground v.1.15,2013-03-10 20:14:00,
2013-03-10 16:17:00,57.1,33.0,30.24,South,175,1.0,2.0,40,0.00,,,0.00,Wunderground v.1.15,2013-03-10 20:17:00,
2013-03-10 16:18:00,57.1,31.7,30.24,South,178,1.0,2.0,38,0.00,,,0.00,Wunderground v.1.15,2013-03-10 20:18:00,
2013-03-10 16:19:00,57.0,31.6,30.24,SSE,161,1.0,2.0,38,0.00,,,0.00,Wunderground v.1.15,2013-03-10 20:19:00,
2013-03-10 16:20:00,56.8,31.4,30.24,South,184,1.0,4.0,38,0.00,,,0.00,Wunderground v.1.15,2013-03-10 20:20:00,
2013-03-10 16:24:00,56.1,30.8,30.24,SSE,159,1.0,5.0,38,0.00,,,0.00,Wunderground v.1.15,2013-03-10 20:24:00,
2013-03-10 16:26:00,55.7,31.7,30.24,SSE,155,2.0,5.0,40,0.00,,,0.00,Wunderground v.1.15,2013-03-10 20:26:00,
2013-03-10 16:28:00,55.7,30.5,30.24,ESE,111,2.0,5.0,38,0.00,,,0.00,Wunderground v.1.15,2013-03-10 20:28:00,
2013-03-10 16:30:00,55.7,31.1,30.24,South,182,3.0,3.0,39,0.00,,,0.00,Wunderground v.1.15,2013-03-10 20:30:00,
2013-03-10 16:31:00,55.7,30.5,30.24,ESE,107,2.0,14.0,38,0.00,,,0.00,Wunderground v.1.15,2013-03-10 20:31:00,
2013-03-10 16:35:00,55.8,30.5,30.24,South,173,2.0,14.0,38,0.00,,,0.00,Wunderground v.1.15,2013-03-10 20:35:00,
2013-03-10 16:37:00,55.9,30.6,30.24,South,173,2.0,14.0,38,0.00,,,0.00,Wunderground v.1.15,2013-03-10 20:37:00,
2013-03-10 16:38:00,55.8,29.9,30.24,ESE,109,2.0,14.0,37,0.00,,,0.00,Wunderground v.1.15,2013-03-10 20:38:00,
2013-03-10 16:42:00,55.6,30.4,30.24,SW,215,2.0,6.0,38,0.00,,,0.00,Wunderground v.1.15,2013-03-10 20:42:00,
2013-03-10 16:45:00,55.6,30.4,30.24,SW,232,2.0,6.0,38,0.00,,,0.00,Wunderground v.1.15,2013-03-10 20:45:00,
2013-03-10 16:47:00,55.8,30.5,30.24,West,263,2.0,6.0,38,0.00,,,0.00,Wunderground v.1.15,2013-03-10 20:47:00,
2013-03-10 16:49:00,56.1,31.5,30.24,WSW,254,1.0,6.0,39,0.00,,,0.00,Wunderground v.1.15,2013-03-10 20:49:00,
2013-03-10 16:53:00,56.5,31.2,30.24,West,259,1.0,1.0,38,0.00,,,0.00,Wunderground v.1.15,2013-03-10 20:53:00,
2013-03-10 16:57:00,56.5,31.2,30.23,SE,142,1.0,3.0,38,0.00,,,0.00,Wunderground v.1.15,2013-03-10 20:57:00,
2013-03-10 16:58:00,56.4,31.7,30.23,SW,215,2.0,3.0,39,0.00,,,0.00,Wunderground v.1.15,2013-03-10 20:58:00,
2013-03-10 17:00:00,56.3,31.0,30.23,ESE,122,2.0,2.0,38,0.00,,,0.00,Wunderground v.1.15,2013-03-10 21:00:00,
2013-03-10 17:05:00,56.3,31.0,30.23,SE,141,1.0,13.0,38,0.00,,,0.00,Wunderground v.1.15,2013-03-10 21:05:00,
2013-03-10 17:07:00,56.1,30.8,30.23,ESE,102,1.0,13.0,38,0.00,,,0.00,Wunderground v.1.15,2013-03-10 21:07:00,
2013-03-10 17:08:00,56.1,30.8,30.23,West,272,1.0,13.0,38,0.00,,,0.00,Wunderground v.1.15,2013-03-10 21:08:00,
2013-03-10 17:09:00,56.2,30.9,30.23,ENE,62,1.0,13.0,38,0.00,,,0.00,Wunderground v.1.15,2013-03-10 21:09:00,
2013-03-10 17:13:00,56.0,30.7,30.23,South,180,2.0,8.0,38,0.00,,,0.00,Wunderground v.1.15,2013-03-10 21:13:00,
2013-03-10 17:15:00,56.1,31.5,30.23,SSE,152,2.0,8.0,39,0.00,,,0.00,Wunderground v.1.15,2013-03-10 21:15:00,
2013-03-10 17:16:00,56.1,30.8,30.23,SE,141,1.0,8.0,38,0.00,,,0.00,Wunderground v.1.15,2013-03-10 21:16:00,
2013-03-10 17:21:00,56.2,31.5,30.23,South,188,1.0,1.0,39,0.00,,,0.00,Wunderground v.1.15,2013-03-10 21:21:00,
2013-03-10 17:22:00,56.2,31.5,30.22,SE,126,1.0,1.0,39,0.00,,,0.00,Wunderground v.1.15,2013-03-10 21:22:00,
2013-03-10 17:23:00,56.2,30.9,30.22,SE,126,1.0,1.0,38,0.00,,,0.00,Wunderground v.1.15,2013-03-10 21:23:00,
2013-03-10 17:25:00,56.3,31.6,30.22,SE,127,1.0,1.0,39,0.00,,,0.00,Wunderground v.1.15,2013-03-10 21:25:00,
2013-03-10 17:28:00,56.2,30.9,30.22,SE,146,1.0,10.0,38,0.00,,,0.00,Wunderground v.1.15,2013-03-10 21:28:00,
2013-03-10 17:32:00,56.2,30.9,30.22,SSE,165,1.0,9.0,38,0.00,,,0.00,Wunderground v.1.15,2013-03-10 21:32:00,
2013-03-10 17:34:00,56.1,30.8,30.22,ESE,108,1.0,9.0,38,0.00,,,0.00,Wunderground v.1.15,2013-03-10 21:34:00,
2013-03-10 17:36:00,56.0,31.4,30.22,ESE,107,1.0,9.0,39,0.00,,,0.00,Wunderground v.1.15,2013-03-10 21:36:00,
2013-03-10 17:38:00,56.1,30.8,30.22,SSE,164,1.0,9.0,38,0.00,,,0.00,Wunderground v.1.15,2013-03-10 21:38:00,
2013-03-10 17:40:00,56.1,30.8,30.22,ESE,105,1.0,7.0,38,0.00,,,0.00,Wunderground v.1.15,2013-03-10 21:40:00,
2013-03-10 17:42:00,55.9,30.6,30.22,SSE,157,1.0,7.0,38,0.00,,,0.00,Wunderground v.1.15,2013-03-10 21:42:00,
2013-03-10 17:43:00,55.8,30.5,30.22,SSE,157,1.0,7.0,38,0.00,,,0.00,Wunderground v.1.15,2013-03-10 21:43:00,
2013-03-10 17:46:00,55.7,30.5,30.22,ESE,111,1.0,7.0,38,0.00,,,0.00,Wunderground v.1.15,2013-03-10 21:46:00,
2013-03-10 17:47:00,55.7,30.5,30.22,SSE,157,1.0,7.0,38,0.00,,,0.00,Wunderground v.1.15,2013-03-10 21:47:00,
2013-03-10 17:48:00,55.6,31.0,30.22,East,95,1.0,9.0,39,0.00,,,0.00,Wunderground v.1.15,2013-03-10 21:48:00,
2013-03-10 17:49:00,55.5,30.3,30.22,ESE,118,1.0,9.0,38,0.00,,,0.00,Wunderground v.1.15,2013-03-10 21:49:00,
2013-03-10 17:52:00,55.2,30.0,30.22,ESE,115,2.0,9.0,38,0.00,,,0.00,Wunderground v.1.15,2013-03-10 21:52:00,
2013-03-10 17:53:00,55.0,29.8,30.22,ESE,115,2.0,9.0,38,0.00,,,0.00,Wunderground v.1.15,2013-03-10 21:53:00,
2013-03-10 17:55:00,55.0,30.5,30.22,ESE,115,2.0,9.0,39,0.00,,,0.00,Wunderground v.1.15,2013-03-10 21:55:00,
2013-03-10 17:56:00,54.9,29.7,30.22,SE,134,2.0,9.0,38,0.00,,,0.00,Wunderground v.1.15,2013-03-10 21:56:00,
2013-03-10 18:02:00,55.1,30.6,30.22,SSE,150,1.0,11.0,39,0.00,,,0.00,Wunderground v.1.15,2013-03-10 22:02:00,
2013-03-10 18:04:00,55.1,29.3,30.22,SSE,157,0.0,11.0,37,0.00,,,0.00,Wunderground v.1.15,2013-03-10 22:04:00,
2013-03-10 18:06:00,55.0,29.2,30.22,ESE,115,1.0,11.0,37,0.00,,,0.00,Wunderground v.1.15,2013-03-10 22:06:00,
2013-03-10 18:08:00,54.9,29.7,30.22,SSE,159,1.0,11.0,38,0.00,,,0.00,Wunderground v.1.15,2013-03-10 22:08:00,
2013-03-10 18:10:00,54.9,29.7,30.22,SSE,159,1.0,1.0,38,0.00,,,0.00,Wunderground v.1.15,2013-03-10 22:10:00,
2013-03-10 18:12:00,54.8,29.0,30.22,SSW,199,1.0,4.0,37,0.00,,,0.00,Wunderground v.1.15,2013-03-10 22:12:00,
2013-03-10 18:14:00,54.8,29.0,30.23,SW,234,1.0,4.0,37,0.00,,,0.00,Wunderground v.1.15,2013-03-10 22:14:00,
2013-03-10 18:16:00,54.7,29.6,30.23,SE,145,1.0,4.0,38,0.00,,,0.00,Wunderground v.1.15,2013-03-10 22:16:00,
2013-03-10 18:18:00,54.6,29.5,30.23,SE,126,0.0,4.0,38,0.00,,,0.00,Wunderground v.1.15,2013-03-10 22:18:00,
2013-03-10 18:20:00,54.6,30.1,30.23,SE,128,0.0,1.0,39,0.00,,,0.00,Wunderground v.1.15,2013-03-10 22:20:00,
2013-03-10 18:21:00,54.5,29.4,30.23,ESE,121,0.0,1.0,38,0.00,,,0.00,Wunderground v.1.15,2013-03-10 22:21:00,
2013-03-10 18:22:00,54.5,29.4,30.23,SE,126,0.0,1.0,38,0.00,,,0.00,Wunderground v.1.15,2013-03-10 22:22:00,
2013-03-10 18:24:00,54.4,29.3,30.23,SE,129,0.0,6.0,38,0.00,,,0.00,Wunderground v.1.15,2013-03-10 22:24:00,
2013-03-10 18:27:00,54.3,29.8,30.23,SE,129,1.0,6.0,39,0.00,,,0.00,Wunderground v.1.15,2013-03-10 22:27:00,
2013-03-10 18:29:00,54.2,29.1,30.23,SE,130,1.0,6.0,38,0.00,,,0.00,Wunderground v.1.15,2013-03-10 22:29:00,
2013-03-10 18:30:00,54.2,29.1,30.23,SE,130,1.0,1.0,38,0.00,,,0.00,Wunderground v.1.15,2013-03-10 22:30:00,
2013-03-10 18:31:00,54.2,29.8,30.23,SE,129,1.0,9.0,39,0.00,,,0.00,Wunderground v.1.15,2013-03-10 22:31:00,
2013-03-10 18:35:00,54.0,29.6,30.23,ESE,121,0.0,9.0,39,0.00,,,0.00,Wunderground v.1.15,2013-03-10 22:35:00,
2013-03-10 18:37:00,53.8,30.0,30.23,ESE,122,0.0,9.0,40,0.00,,,0.00,Wunderground v.1.15,2013-03-10 22:37:00,
2013-03-10 18:40:00,53.5,29.7,30.23,ESE,122,0.0,0.0,40,0.00,,,0.00,Wunderground v.1.15,2013-03-10 22:40:00,
2013-03-10 18:42:00,53.3,28.9,30.23,ESE,123,0.0,0.0,39,0.00,,,0.00,Wunderground v.1.15,2013-03-10 22:42:00,
2013-03-10 18:43:00,53.2,28.9,30.23,ESE,122,0.0,0.0,39,0.00,,,0.00,Wunderground v.1.15,2013-03-10 22:43:00,
2013-03-10 18:46:00,52.9,29.2,30.23,SE,136,1.0,5.0,40,0.00,,,0.00,Wunderground v.1.15,2013-03-10 22:46:00,
2013-03-10 18:47:00,52.8,28.5,30.23,SE,132,1.0,5.0,39,0.00,,,0.00,Wunderground v.1.15,2013-03-10 22:47:00,
2013-03-10 18:49:00,52.6,28.9,30.23,SE,132,1.0,5.0,40,0.00,,,0.00,Wunderground v.1.15,2013-03-10 22:49:00,
2013-03-10 18:50:00,52.6,29.5,30.23,SE,132,1.0,1.0,41,0.00,,,0.00,Wunderground v.1.15,2013-03-10 22:50:00,
2013-03-10 18:54:00,52.2,28.6,30.22,SE,132,1.0,6.0,40,0.00,,,0.00,Wunderground v.1.15,2013-03-10 22:54:00,
2013-03-10 18:55:00,52.1,28.5,30.23,SE,132,1.0,6.0,40,0.00,,,0.00,Wunderground v.1.15,2013-03-10 22:55:00,
2013-03-10 18:56:00,52.1,28.5,30.23,SE,131,1.0,6.0,40,0.00,,,0.00,Wunderground v.1.15,2013-03-10 22:56:00,
2013-03-10 18:57:00,52.1,28.5,30.23,SE,130,0.0,6.0,40,0.00,,,0.00,Wunderground v.1.15,2013-03-10 22:57:00,
2013-03-10 19:01:00,51.9,28.9,30.23,ESE,105,1.0,8.0,41,0.00,,,0.00,Wunderground v.1.15,2013-03-10 23:01:00,
2013-03-10 19:03:00,51.7,28.7,30.23,ESE,105,1.0,8.0,41,0.00,,,0.00,Wunderground v.1.15,2013-03-10 23:03:00,
2013-03-10 19:08:00,51.5,27.3,30.23,ESE,115,1.0,8.0,39,0.00,,,0.00,Wunderground v.1.15,2013-03-10 23:08:00,
2013-03-10 19:09:00,51.4,28.5,30.23,ESE,115,1.0,8.0,41,0.00,,,0.00,Wunderground v.1.15,2013-03-10 23:09:00,
2013-03-10 19:13:00,51.3,27.2,30.23,SE,132,1.0,6.0,39,0.00,,,0.00,Wunderground v.1.15,2013-03-10 23:13:00,
2013-03-10 19:15:00,51.3,27.2,30.23,ESE,123,1.0,6.0,39,0.00,,,0.00,Wunderground v.1.15,2013-03-10 23:15:00,
2013-03-10 19:17:00,51.4,27.2,30.22,SE,126,2.0,6.0,39,0.00,,,0.00,Wunderground v.1.15,2013-03-10 23:17:00,
2013-03-10 19:18:00,51.4,27.2,30.23,ESE,117,2.0,6.0,39,0.00,,,0.00,Wunderground v.1.15,2013-03-10 23:18:00,
2013-03-10 19:19:00,51.4,27.2,30.23,ESE,117,2.0,6.0,39,0.00,,,0.00,Wunderground v.1.15,2013-03-10 23:19:00,
2013-03-10 19:22:00,51.3,27.8,30.23,ESE,117,1.0,2.0,40,0.00,,,0.00,Wunderground v.1.15,2013-03-10 23:22:00,
2013-03-10 19:26:00,51.1,27.0,30.23,SE,140,1.0,2.0,39,0.00,,,0.00,Wunderground v.1.15,2013-03-10 23:26:00,
2013-03-10 19:28:00,51.0,26.9,30.23,SE,132,1.0,4.0,39,0.00,,,0.00,Wunderground v.1.15,2013-03-10 23:28:00,
2013-03-10 19:30:00,51.0,27.5,30.23,SE,124,1.0,1.0,40,0.00,,,0.00,Wunderground v.1.15,2013-03-10 23:30:00,
2013-03-10 19:31:00,50.9,28.0,30.23,ESE,123,1.0,7.0,41,0.00,,,0.00,Wunderground v.1.15,2013-03-10 23:31:00,
2013-03-10 19:33:00,50.8,27.3,30.23,SE,132,1.0,7.0,40,0.00,,,0.00,Wunderground v.1.15,2013-03-10 23:33:00,
2013-03-10 19:35:00,50.7,26.6,30.23,SE,128,2.0,7.0,39,0.00,,,0.00,Wunderground v.1.15,2013-03-10 23:35:00,
2013-03-10 19:36:00,50.7,26.6,30.23,SE,130,2.0,7.0,39,0.00,,,0.00,Wunderground v.1.15,2013-03-10 23:36:00,
2013-03-10 19:41:00,50.8,26.7,30.23,East,90,1.0,1.0,39,0.00,,,0.00,Wunderground v.1.15,2013-03-10 23:41:00,
2013-03-10 19:42:00,50.8,26.1,30.23,ESE,102,1.0,1.0,38,0.00,,,0.00,Wunderground v.1.15,2013-03-10 23:42:00,
2013-03-10 19:44:00,50.8,26.1,30.23,ESE,123,1.0,5.0,38,0.00,,,0.00,Wunderground v.1.15,2013-03-10 23:44:00,
2013-03-10 19:46:00,50.8,26.1,30.24,SE,125,2.0,5.0,38,0.00,,,0.00,Wunderground v.1.15,2013-03-10 23:46:00,
2013-03-10 19:47:00,50.9,26.2,30.23,SE,128,2.0,5.0,38,0.00,,,0.00,Wunderground v.1.15,2013-03-10 23:47:00,
2013-03-10 19:51:00,50.8,26.1,30.23,SE,140,2.0,2.0,38,0.00,,,0.00,Wunderground v.1.15,2013-03-10 23:51:00,
2013-03-10 19:53:00,50.8,26.1,30.23,SE,138,2.0,8.0,38,0.00,,,0.00,Wunderground v.1.15,2013-03-10 23:53:00,
2013-03-10 19:58:00,50.6,25.9,30.24,SSE,155,2.0,8.0,38,0.00,,,0.00,Wunderground v.1.15,2013-03-10 23:58:00,
2013-03-10 19:59:00,50.6,25.9,30.24,East,98,2.0,11.0,38,0.00,,,0.00,Wunderground v.1.15,2013-03-10 23:59:00,
2013-03-10 20:02:00,50.6,25.9,30.24,SSE,157,2.0,8.0,38,0.00,,,0.00,Wunderground v.1.15,2013-03-11 00:02:00,
2013-03-10 20:04:00,50.6,25.9,30.24,SSE,160,1.0,8.0,38,0.00,,,0.00,Wunderground v.1.15,2013-03-11 00:04:00,
2013-03-10 20:05:00,50.5,26.4,30.24,SSE,150,2.0,8.0,39,0.00,,,0.00,Wunderground v.1.15,2013-03-11 00:05:00,
2013-03-10 20:11:00,50.3,26.3,30.23,SSE,148,1.0,5.0,39,0.00,,,0.00,Wunderground v.1.15,2013-03-11 00:11:00,
2013-03-10 20:12:00,50.2,26.8,30.24,SSE,148,1.0,5.0,40,0.00,,,0.00,Wunderground v.1.15,2013-03-11 00:12:00,
2013-03-10 20:14:00,50.1,26.1,30.24,SE,128,1.0,5.0,39,0.00,,,0.00,Wunderground v.1.15,2013-03-11 00:14:00,
2013-03-10 20:17:00,50.1,26.1,30.24,ESE,111,1.0,5.0,39,0.00,,,0.00,Wunderground v.1.15,2013-03-11 00:17:00,
2013-03-10 20:18:00,50.1,26.1,30.24,SE,142,1.0,5.0,39,0.00,,,0.00,Wunderground v.1.15,2013-03-11 00:18:00,
2013-03-10 20:20:00,50.1,26.7,30.24,ESE,121,1.0,4.0,40,0.00,,,0.00,Wunderground v.1.15,2013-03-11 00:20:00,
2013-03-10 20:23:00,50.0,26.6,30.23,SE,130,1.0,4.0,40,0.00,,,0.00,Wunderground v.1.15,2013-03-11 00:23:00,
2013-03-10 20:25:00,50.0,26.6,30.23,ESE,109,1.0,4.0,40,0.00,,,0.00,Wunderground v.1.15,2013-03-11 00:25:00,
2013-03-10 20:26:00,49.9,26.5,30.24,ESE,113,1.0,4.0,40,0.00,,,0.00,Wunderground v.1.15,2013-03-11 00:26:00,
2013-03-10 20:27:00,49.9,26.5,30.24,SE,129,1.0,4.0,40,0.00,,,0.00,Wunderground v.1.15,2013-03-11 00:27:00,
2013-03-10 20:33:00,49.7,26.3,30.23,East,87,1.0,11.0,40,0.00,,,0.00,Wunderground v.1.15,2013-03-11 00:33:00,
2013-03-10 20:34:00,49.7,26.3,30.23,SE,132,1.0,11.0,40,0.00,,,0.00,Wunderground v.1.15,2013-03-11 00:34:00,
2013-03-10 20:35:00,49.8,26.4,30.23,ESE,111,1.0,11.0,40,0.00,,,0.00,Wunderground v.1.15,2013-03-11 00:35:00,
2013-03-10 20:36:00,49.8,26.4,30.23,ESE,122,1.0,11.0,40,0.00,,,0.00,Wunderground v.1.15,2013-03-11 00:36:00,
2013-03-10 20:42:00,49.6,26.8,30.23,SSE,148,2.0,2.0,41,0.00,,,0.00,Wunderground v.1.15,2013-03-11 00:42:00,
2013-03-10 20:44:00,49.6,26.8,30.23,East,94,2.0,6.0,41,0.00,,,0.00,Wunderground v.1.15,2013-03-11 00:44:00,
2013-03-10 20:45:00,49.7,26.3,30.23,SSE,159,2.0,6.0,40,0.00,,,0.00,Wunderground v.1.15,2013-03-11 00:45:00,
2013-03-10 20:46:00,49.7,26.3,30.23,SSE,156,2.0,6.0,40,0.00,,,0.00,Wunderground v.1.15,2013-03-11 00:46:00,
2013-03-10 20:50:00,49.6,26.8,30.23,West,267,2.0,2.0,41,0.00,,,0.00,Wunderground v.1.15,2013-03-11 00:50:00,
2013-03-10 20:52:00,49.5,26.7,30.23,ESE,115,2.0,2.0,41,0.00,,,0.00,Wunderground v.1.15,2013-03-11 00:52:00,
2013-03-10 20:54:00,49.4,26.7,30.23,East,96,2.0,5.0,41,0.00,,,0.00,Wunderground v.1.15,2013-03-11 00:54:00,
2013-03-10 20:58:00,49.1,26.4,30.23,SSE,166,1.0,6.0,41,0.00,,,0.00,Wunderground v.1.15,2013-03-11 00:58:00,
2013-03-10 21:00:00,49.1,26.4,30.23,SSE,160,1.0,4.0,41,0.00,,,0.00,Wunderground v.1.15,2013-03-11 01:00:00,
2013-03-10 21:01:00,49.1,27.0,30.23,SSE,156,1.0,9.0,42,0.00,,,0.00,Wunderground v.1.15,2013-03-11 01:01:00,
2013-03-10 21:02:00,49.0,26.9,30.23,SE,132,1.0,9.0,42,0.00,,,0.00,Wunderground v.1.15,2013-03-11 01:02:00,
2013-03-10 21:05:00,48.8,26.7,30.23,ESE,113,1.0,9.0,42,0.00,,,0.00,Wunderground v.1.15,2013-03-11 01:05:00,
2013-03-10 21:06:00,48.7,27.2,30.23,ESE,119,1.0,9.0,43,0.00,,,0.00,Wunderground v.1.15,2013-03-11 01:06:00,
2013-03-10 21:07:00,48.6,27.6,30.23,ESE,118,1.0,9.0,44,0.00,,,0.00,Wunderground v.1.15,2013-03-11 01:07:00,
2013-03-10 21:11:00,48.0,26.5,30.23,SE,134,1.0,4.0,43,0.00,,,0.00,Wunderground v.1.15,2013-03-11 01:11:00,
2013-03-10 21:12:00,47.9,27.0,30.23,SE,134,1.0,4.0,44,0.00,,,0.00,Wunderground v.1.15,2013-03-11 01:12:00,
2013-03-10 21:13:00,47.8,26.9,30.23,ESE,121,1.0,4.0,44,0.00,,,0.00,Wunderground v.1.15,2013-03-11 01:13:00,
2013-03-10 21:17:00,47.7,26.8,30.23,SE,139,1.0,5.0,44,0.00,,,0.00,Wunderground v.1.15,2013-03-11 01:17:00,
2013-03-10 21:18:00,47.6,26.7,30.23,SE,138,2.0,5.0,44,0.00,,,0.00,Wunderground v.1.15,2013-03-11 01:18:00,
2013-03-10 21:20:00,47.5,26.6,30.23,SE,142,2.0,2.0,44,0.00,,,0.00,Wunderground v.1.15,2013-03-11 01:20:00,
2013-03-10 21:23:00,47.4,26.6,30.23,SE,129,1.0,5.0,44,0.00,,,0.00,Wunderground v.1.15,2013-03-11 01:23:00,
2013-03-10 21:26:00,47.4,26.6,30.24,ESE,123,1.0,5.0,44,0.00,,,0.00,Wunderground v.1.15,2013-03-11 01:26:00,
2013-03-10 21:27:00,47.4,26.6,30.24,SSE,150,2.0,5.0,44,0.00,,,0.00,Wunderground v.1.15,2013-03-11 01:27:00,
2013-03-10 21:29:00,47.5,26.6,30.24,ESE,121,2.0,6.0,44,0.00,,,0.00,Wunderground v.1.15,2013-03-11 01:29:00,
2013-03-10 21:30:00,47.5,26.6,30.24,SE,133,2.0,2.0,44,0.00,,,0.00,Wunderground v.1.15,2013-03-11 01:30:00,
2013-03-10 21:32:00,47.5,26.6,30.23,South,172,2.0,11.0,44,0.00,,,0.00,Wunderground v.1.15,2013-03-11 01:32:00,
2013-03-10 21:35:00,47.4,26.6,30.23,SE,144,2.0,11.0,44,0.00,,,0.00,Wunderground v.1.15,2013-03-11 01:35:00,
2013-03-10 21:38:00,47.3,26.5,30.23,ESE,120,3.0,11.0,44,0.00,,,0.00,Wunderground v.1.15,2013-03-11 01:38:00,
2013-03-10 21:40:00,47.3,26.5,30.23,SE,134,2.0,6.0,44,0.00,,,0.00,Wunderground v.1.15,2013-03-11 01:40:00,
2013-03-10 21:45:00,47.2,26.4,30.23,SE,132,3.0,6.0,44,0.00,,,0.00,Wunderground v.1.15,2013-03-11 01:45:00,
2013-03-10 21:46:00,47.2,26.4,30.23,ESE,120,3.0,6.0,44,0.00,,,0.00,Wunderground v.1.15,2013-03-11 01:46:00,
2013-03-10 21:51:00,47.0,26.7,30.23,SE,129,2.0,7.0,45,0.00,,,0.00,Wunderground v.1.15,2013-03-11 01:51:00,
2013-03-10 21:52:00,46.9,26.6,30.23,SE,130,2.0,7.0,45,0.00,,,0.00,Wunderground v.1.15,2013-03-11 01:52:00,
2013-03-10 21:53:00,46.9,26.1,30.23,SE,132,2.0,7.0,44,0.00,,,0.00,Wunderground v.1.15,2013-03-11 01:53:00,
2013-03-10 21:54:00,46.9,26.6,30.23,SE,131,2.0,7.0,45,0.00,,,0.00,Wunderground v.1.15,2013-03-11 01:54:00,
2013-03-10 21:59:00,46.7,25.9,30.23,SSE,155,2.0,7.0,44,0.00,,,0.00,Wunderground v.1.15,2013-03-11 01:59:00,
2013-03-10 22:00:00,46.7,25.9,30.23,ESE,111,2.0,7.0,44,0.00,,,0.00,Wunderground v.1.15,2013-03-11 02:00:00,
2013-03-10 22:02:00,46.7,25.9,30.23,ESE,114,2.0,9.0,44,0.00,,,0.00,Wunderground v.1.15,2013-03-11 02:02:00,
2013-03-10 22:03:00,46.7,25.9,30.23,ESE,115,2.0,9.0,44,0.00,,,0.00,Wunderground v.1.15,2013-03-11 02:03:00,
2013-03-10 22:06:00,46.7,25.9,30.23,SE,130,3.0,9.0,44,0.00,,,0.00,Wunderground v.1.15,2013-03-11 02:06:00,
2013-03-10 22:07:00,46.7,25.9,30.23,SE,136,3.0,9.0,44,0.00,,,0.00,Wunderground v.1.15,2013-03-11 02:07:00,
2013-03-10 22:11:00,46.7,25.9,30.24,SE,130,1.0,2.0,44,0.00,,,0.00,Wunderground v.1.15,2013-03-11 02:11:00,
2013-03-10 22:12:00,46.6,25.8,30.24,SE,128,1.0,2.0,44,0.00,,,0.00,Wunderground v.1.15,2013-03-11 02:12:00,
2013-03-10 22:13:00,46.6,25.8,30.24,SSE,148,2.0,2.0,44,0.00,,,0.00,Wunderground v.1.15,2013-03-11 02:13:00,
2013-03-10 22:14:00,46.6,25.8,30.24,SSE,162,2.0,2.0,44,0.00,,,0.00,Wunderground v.1.15,2013-03-11 02:14:00,
2013-03-10 22:19:00,46.6,25.3,30.23,ESE,122,2.0,4.0,43,0.00,,,0.00,Wunderground v.1.15,2013-03-11 02:19:00,
2013-03-10 22:20:00,46.6,25.3,30.24,ESE,123,2.0,2.0,43,0.00,,,0.00,Wunderground v.1.15,2013-03-11 02:20:00,
2013-03-10 22:21:00,46.5,25.7,30.23,SE,128,2.0,2.0,44,0.00,,,0.00,Wunderground v.1.15,2013-03-11 02:21:00,
2013-03-10 22:25:00,46.4,25.1,30.23,SE,144,1.0,2.0,43,0.00,,,0.00,Wunderground v.1.15,2013-03-11 02:25:00,
2013-03-10 22:26:00,46.4,25.1,30.24,ESE,113,1.0,2.0,43,0.00,,,0.00,Wunderground v.1.15,2013-03-11 02:26:00,
2013-03-10 22:28:00,46.2,24.9,30.24,SE,137,0.0,2.0,43,0.00,,,0.00,Wunderground v.1.15,2013-03-11 02:28:00,
2013-03-10 22:30:00,46.2,24.9,30.23,ESE,102,0.0,4.0,43,0.00,,,0.00,Wunderground v.1.15,2013-03-11 02:30:00,
2013-03-10 22:31:00,46.2,24.9,30.23,SE,144,1.0,12.0,43,0.00,,,0.00,Wunderground v.1.15,2013-03-11 02:31:00,
2013-03-10 22:33:00,46.1,24.8,30.23,SE,129,1.0,12.0,43,0.00,,,0.00,Wunderground v.1.15,2013-03-11 02:33:00,
2013-03-10 22:34:00,46.1,24.8,30.23,SSE,147,1.0,12.0,43,0.00,,,0.00,Wunderground v.1.15,2013-03-11 02:34:00,
2013-03-10 22:37:00,46.0,24.2,30.23,ESE,106,1.0,12.0,42,0.00,,,0.00,Wunderground v.1.15,2013-03-11 02:37:00,
2013-03-10 22:39:00,46.0,24.7,30.23,SE,128,1.0,12.0,43,0.00,,,0.00,Wunderground v.1.15,2013-03-11 02:39:00,
2013-03-10 22:41:00,46.0,24.2,30.23,SE,139,1.0,1.0,42,0.00,,,0.00,Wunderground v.1.15,2013-03-11 02:41:00,
2013-03-10 22:43:00,46.0,24.7,30.24,SE,139,1.0,2.0,43,0.00,,,0.00,Wunderground v.1.15,2013-03-11 02:43:00,
2013-03-10 22:46:00,46.0,24.7,30.24,SE,133,1.0,2.0,43,0.00,,,0.00,Wunderground v.1.15,2013-03-11 02:46:00,
2013-03-10 22:47:00,46.0,24.7,30.24,SE,134,1.0,2.0,43,0.00,,,0.00,Wunderground v.1.15,2013-03-11 02:47:00,
2013-03-10 22:49:00,45.9,24.6,30.24,SSE,153,1.0,2.0,43,0.00,,,0.00,Wunderground v.1.15,2013-03-11 02:49:00,
2013-03-10 22:50:00,45.9,24.6,30.24,SSE,147,1.0,1.0,43,0.00,,,0.00,Wunderground v.1.15,2013-03-11 02:50:00,
2013-03-10 22:52:00,45.8,24.5,30.24,ESE,102,0.0,1.0,43,0.00,,,0.00,Wunderground v.1.15,2013-03-11 02:52:00,
2013-03-10 22:55:00,45.8,24.5,30.24,SE,138,0.0,1.0,43,0.00,,,0.00,Wunderground v.1.15,2013-03-11 02:55:00,
2013-03-10 22:57:00,45.8,24.5,30.24,SE,131,0.0,1.0,43,0.00,,,0.00,Wunderground v.1.15,2013-03-11 02:57:00,
2013-03-10 22:58:00,45.8,24.5,30.23,SSW,206,0.0,4.0,43,0.00,,,0.00,Wunderground v.1.15,2013-03-11 02:58:00,
2013-03-10 23:02:00,45.9,25.2,30.23,SE,133,1.0,9.0,44,0.00,,,0.00,Wunderground v.1.15,2013-03-11 03:02:00,
2013-03-10 23:03:00,45.8,25.1,30.23,SE,146,1.0,9.0,44,0.00,,,0.00,Wunderground v.1.15,2013-03-11 03:03:00,
2013-03-10 23:08:00,46.0,24.7,30.22,South,176,3.0,12.0,43,0.00,,,0.00,Wunderground v.1.15,2013-03-11 03:08:00,
2013-03-10 23:10:00,46.0,25.3,30.22,SSE,163,3.0,3.0,44,0.00,,,0.00,Wunderground v.1.15,2013-03-11 03:10:00,
2013-03-10 23:13:00,45.9,24.6,30.23,SE,143,3.0,6.0,43,0.00,,,0.00,Wunderground v.1.15,2013-03-11 03:13:00,
2013-03-10 23:17:00,45.8,25.1,30.23,SE,144,2.0,6.0,44,0.00,,,0.00,Wunderground v.1.15,2013-03-11 03:17:00,
2013-03-10 23:18:00,45.6,24.9,30.23,SSE,157,2.0,6.0,44,0.00,,,0.00,Wunderground v.1.15,2013-03-11 03:18:00,
2013-03-10 23:19:00,45.6,24.9,30.23,South,175,2.0,6.0,44,0.00,,,0.00,Wunderground v.1.15,2013-03-11 03:19:00,
2013-03-10 23:21:00,45.5,24.3,30.23,SSE,159,2.0,2.0,43,0.00,,,0.00,Wunderground v.1.15,2013-03-11 03:21:00,
2013-03-10 23:26:00,45.5,24.3,30.23,SE,131,1.0,5.0,43,0.00,,,0.00,Wunderground v.1.15,2013-03-11 03:26:00,
2013-03-10 23:27:00,45.5,24.3,30.23,SE,144,1.0,5.0,43,0.00,,,0.00,Wunderground v.1.15,2013-03-11 03:27:00,
2013-03-10 23:30:00,45.5,24.3,30.22,South,170,2.0,4.0,43,0.00,,,0.00,Wunderground v.1.15,2013-03-11 03:30:00,
2013-03-10 23:32:00,45.6,23.8,30.23,SSE,163,1.0,8.0,42,0.00,,,0.00,Wunderground v.1.15,2013-03-11 03:32:00,
2013-03-10 23:33:00,45.6,24.4,30.23,East,92,2.0,8.0,43,0.00,,,0.00,Wunderground v.1.15,2013-03-11 03:33:00,
2013-03-10 23:34:00,45.6,24.4,30.23,SSW,202,2.0,8.0,43,0.00,,,0.00,Wunderground v.1.15,2013-03-11 03:34:00,
2013-03-10 23:38:00,45.7,24.5,30.23,SSW,210,2.0,8.0,43,0.00,,,0.00,Wunderground v.1.15,2013-03-11 03:38:00,
2013-03-10 23:39:00,45.7,24.5,30.23,SSE,161,2.0,8.0,43,0.00,,,0.00,Wunderground v.1.15,2013-03-11 03:39:00,
2013-03-10 23:41:00,45.7,24.5,30.23,SSE,159,2.0,9.0,43,0.00,,,0.00,Wunderground v.1.15,2013-03-11 03:41:00,
2013-03-10 23:43:00,45.6,24.9,30.23,SSE,157,1.0,9.0,44,0.00,,,0.00,Wunderground v.1.15,2013-03-11 03:43:00,
2013-03-10 23:44:00,45.6,24.9,30.23,SSE,148,1.0,9.0,44,0.00,,,0.00,Wunderground v.1.15,2013-03-11 03:44:00,
2013-03-10 23:46:00,45.6,24.4,30.22,SE,146,1.0,9.0,43,0.00,,,0.00,Wunderground v.1.15,2013-03-11 03:46:00,
2013-03-10 23:50:00,45.6,24.4,30.22,SSE,155,1.0,1.0,43,0.00,,,0.00,Wunderground v.1.15,2013-03-11 03:50:00,
2013-03-10 23:53:00,45.8,24.5,30.23,SSE,150,1.0,1.0,43,0.00,,,0.00,Wunderground v.1.15,2013-03-11 03:53:00,
2013-03-10 23:55:00,45.8,25.1,30.23,SSE,156,1.0,1.0,44,0.00,,,0.00,Wunderground v.1.15,2013-03-11 03:55:00,
2013-03-10 23:57:00,45.7,25.0,30.23,SE,144,1.0,1.0,44,0.00,,,0.00,Wunderground v.1.15,2013-03-11 03:57:00,
2013-03-10 23:59:00,45.6,24.9,30.23,SSW,213,1.0,1.0,44,0.00,,,0.00,Wunderground v.1.15,2013-03-11 03:59:00,